the time You need

Gran Fondo del Gallo Nero

Radda in Chianti, Siena   Italy

domenica 24 settembre 2017

Percorsi

LUNGO - 133.0 Km

 

CORTO - 86.0 Km

Servizi

ADSCOSTPunti KS Ranking

Chip

Abilita il chip personale Abilita il chip personale

Circuiti

Prestigio

Ente

FCI

CLASSIFICA

LUNGO - 133.0 Km VISUALIZZAZIONE ESTESA

Pos Atleta Sesso Cat PosC Team Tempo Media RTime
Sq. CODE CHIP WT267 - M NC - - 01:11:35.43 111,48 01:07:03.23
Sq. CODE CHIP WT267 - M NC - - 01:11:35.43 111,48 01:07:03.23
Sq. CODE CHIP WT267 - M NC - - 01:11:35.43 111,48 01:07:03.23
Sq. CODE CHIP WT267 - M NC - - 01:11:35.43 111,48 01:07:03.23
1 POZZETTO FEDERICO M ELMT 1 CANNONDALE-GOBBI-FSA 03:40:51.54 36,13 03:40:38.44
2 ZEN ENRICO M M1 1 TEAM TERENZI GREEN PAPER MOBILZEN 03:40:52.76 36,13 03:40:31.26
3 SCOTTI FEDERICO M M1 2 ASD MC CYCLING TIME 03:40:53.93 36,13 03:40:31.53
4 FANELLI LORENZO M ELMT 2 ASD TEAM MP FILTRI 03:40:54.68 36,12 03:40:36.28
5 CINI FABIO M ELMT 3 ASD CICLI COPPARO - LIOTTO 03:40:55.80 36,12 03:40:44.20
6 PAOLONI GIANLUCA M M2 1 TEAM TERENZI GREEN PAPER MOBILZEN 03:41:02.68 36,10 03:40:41.41
7 PINTON CRISTIAN M M1 3 TEAM GREEN PAPER MOBILZEN TERENZI 03:41:06.14 36,09 03:40:43.43
8 CECCHINI STEFANO M M2 2 ASD TEAM PRIVÉE 03:41:14.93 36,07 03:41:04.53
9 MARSILI STEFANO M M5 1 ACD BICISPORTEAM FIRENZE 03:41:39.26 36,00 03:41:22.16
10 SCOTTI STEFANO M M1 4 ASD MC CYCLING TIME 03:41:46.02 35,98 03:41:22.22
11 TRAPELLA DAEVID M M2 3 TEAM FERRARA BIKE 03:41:51.26 35,97 03:40:45.16
12 OSTOLANI IVAN M M2 4 ASD MC CYCLING TIME 03:42:02.12 35,94 03:41:51.51
13 BUSBANI GIANPAOLO M M3 1 ASD CICLI COPPARO - LIOTTO 03:42:11.51 35,92 03:41:59.59
14 PRESTA LEONARDO M ELMT 4 UC PETRIGNANO 03:42:14.75 35,91 03:42:05.35
15 VERRAZZANI FEDERICO M M3 2 DONKEY BIKE CLUB SINALUNGA 03:42:25.41 35,88 03:42:12.12
16 MAGRI GIULIO M M2 5 TEAM ISOLMANT 03:42:26.87 35,88 03:42:06.06
17 ANSELMICCHIO GIORGIO M M1 5 DI GIOIA CYCLING 03:42:57.67 35,79 03:42:44.57
18 CERAGIOLI GIUSEPPE M M4 1 ASD TEAM PRIVÉE 03:42:57.92 35,79 03:41:29.82
19 MAZZI SIMONE M M3 3 #SOLOSALITA - SQUADRA CORSE 03:43:53.17 35,64 03:43:33.07
20 VITI FILIPPO M M2 6 ASD MC CYCLING TIME 03:45:41.76 35,36 03:45:19.66
21 BANTI FABRIZIO M M5 2 VELOCLUB PONTEDERA 03:46:43.75 35,20 03:46:15.55
22 LICCIONE RODOLFO M M3 5 ASD CICLOSOVIGLIANA 03:46:44.41 35,20 03:43:45.45
23 ANTONIOLI MICHELE M M3 4 US BORMIESE 03:46:44.41 35,20 03:46:34.34
24 CORUZZI ANDREA M M2 7 SHOW AIR TEAM ASD 03:46:48.75 35,19 03:46:29.65
25 BARTEMUCCI ANDREA M ELMT 5 CICLO CLUB QUOTA MILLE 03:47:15.64 35,12 03:44:53.54
26 BOTTONE MASSIMILIANO M M3 6 GS CICLI GAUDENZI 03:47:45.41 35,04 03:47:31.31
27 PONTICELLI MARCO M M1 6 TEAM CHIANTI BIKE ASD GIANT 03:47:49.71 35,03 03:47:31.01
28 VITALI FRANCESCO M M3 7 THREE STAR RACING TEAM ASD 03:48:00.06 35,00 03:47:43.43
29 ROSSI EMILIANO M M4 2 ASD MC CYCLING TIME 03:48:11.93 34,97 03:47:48.53
30 PRUNETI GUIDO M M3 8 TEAM GRANFONDO FIRENZE B-KING 03:48:30.17 34,92 03:48:21.21
31 PESCIAIOLI FRANCESCO M M2 8 ASD CICLI CASTELLACCIO 03:48:33.35 34,92 03:48:11.05
32 MARIOTTI LUCA M M5 3 NUOVA ASD TEAM CICLOIDEA 03:49:16.11 34,81 03:47:27.27
33 BERTOZZI DANIELE M M6 1 TEAM DEL CAPITANO ASD 03:49:17.12 34,80 03:48:58.58
34 CERRITELLI STEFANO M M3 9 UCT MONTEBELLUNA 03:49:19.91 34,80 03:47:26.31
35 SQUARTA DAVID M M3 10 UC PETRIGNANO 03:49:21.58 34,79 03:49:01.18
36 TIRONZELLI GABRIELE M M3 11 VELO CLUB GUBBIO 03:53:06.29 34,23 03:51:40.40
37 BULGARELLI FABIO M M3 12 GS SPORTISSIMO TOP LEVEL 03:53:11.92 34,22 03:51:45.72
38 GORGOIOLI MASSIMO M M4 3 ASD BLU VELO 03:53:49.30 34,13 03:53:39.39
39 BOSCHETTI STEFANO M M3 13 TEAM DEL CAPITANO ASD 03:53:49.30 34,13 03:53:29.10
40 CASCIANELLI MARCO M M2 9 ASD MKG CYCLING TEAM 03:53:49.67 34,13 03:53:28.27
41 LANDI MARCO M M2 10 GS CICLI GAUDENZI 03:53:50.90 34,13 03:53:32.50
42 BRACONI LORENZO M M2 11 TEAM NOB JOLLY WEAR 03:56:09.91 33,79 03:53:06.31
43 SERVADIO SANDRO M M4 4 SPORT BIKE 03:56:13.92 33,78 03:55:10.22
44 RICCIONI GIOVANNI M M6 2 ASD TEAM FAUSTO COPPI FERMIGNANO 03:56:25.64 33,75 03:56:17.54
45 MAGNINI ANDREA M ELMT 6 ACD BICISPORTEAM FIRENZE 03:56:32.13 33,74 03:53:13.13
46 BAZZANI MICHELE M M4 5 TEAM BICIDEA MONTELLESE 03:57:26.07 33,61 03:57:06.06
47 CIACCI ALESSANDRO M M2 12 TOSCANYGO 03:57:42.17 33,57 03:55:50.07
48 OSSELAER GERT M M3 14 INDIVIDUALE 03:57:43.92 33,57 03:56:30.82
49 ZANOLO MASSIMILIANO M M2 13 TEAM DE ROSA SANTINI 03:57:44.34 33,57 03:57:15.14
50 EVANGELISTI EMILIANO M M3 15 ASD CICLI COPPARO - LIOTTO 03:57:46.35 33,56 03:56:21.21
51 MORELLI MATTEO M M3 16 VELO CLUB GUBBIO 03:57:46.35 33,56 03:56:18.15
52 SPITONI FRANCESCO M M2 14 ASD TEAM FAUSTO COPPI FERMIGNANO 03:57:50.41 33,55 03:57:18.18
53 PALANO SALVATORE M M2 15 BIKE REVOLUTION SQUADRA CORSE 03:58:06.66 33,52 03:57:35.06
54 COMUNELLO DOMENICO MATTEO M M4 6 GS SPORTISSIMO TOP LEVEL 03:58:17.60 33,49 03:58:06.00
55 SABADIN ENRICO M M2 16 ASD TEAM C & P 03:59:11.12 33,36 03:58:35.35
56 SABADIN MICHELE M M1 7 ASD TEAM C & P 03:59:11.12 33,36 03:58:38.38
57 GORACCI FABIO M M4 7 TEAM MARATHON BIKE ASD 03:59:11.33 33,36 03:56:49.49
58 MORIGI DANIELE M M5 4 ASD LA TORRE - SAN MAURO IN VALLE 03:59:16.16 33,35 03:58:10.10
59 PIERUCCI GIACOMO M M2 17 CDP SPAZZAVENTO ASD CICLISMO 04:00:13.59 33,22 03:59:11.11
60 PARIGI FABIO M M2 18 ASD MC CYCLING TIME 04:00:15.26 33,22 03:58:12.12
61 ROSI LORENZO M M1 8 ASD MC CYCLING TIME 04:00:15.26 33,22 03:57:10.10
62 LOMBARDELLI IVANO M M6 3 ASD B-TEAM 04:00:18.17 33,21 03:58:35.35
63 PARRINI GIANNI M M4 8 IL FABBRINO ASD 04:00:32.45 33,18 03:57:23.23
64 CRISTIANO ROBERTO M M4 9 VELOCLUB PONTEDERA 04:03:03.33 32,83 04:01:38.38
65 AGATI CRISTIANO M M1 9 AGLIANA CICLISMO 04:03:03.67 32,83 04:02:49.27
66 BUCCIARELLI SAURO M M3 17 POLISPORTIVA OLTRARNO 04:03:31.11 32,77 04:00:26.26
67 BERTINI MICHELE M M3 18 BICI TEAM FRANCY 04:05:00.92 32,57 04:01:45.62
68 TESTA DANIELE M M2 19 GS POCCIANTI 04:05:01.77 32,57 04:04:48.07
69 GHEZZI MARCO M M4 10 ACD BICISPORTEAM FIRENZE 04:05:05.42 32,56 04:02:15.15
70 BARONTI CLAUDIO M M7 1 TEAM FOCUS FANELLI BIKE 04:05:32.17 32,50 04:05:25.25
71 STRAGLIOTTO PIERLUIGI M M5 5 ASD CICLI MORBIATO 04:06:44.59 32,34 04:06:24.49
72 SEGHI FRANCESCO M M1 10 GS POCCIANTI 04:07:03.85 32,30 04:06:52.15
73 BELLORA MARCO M ELMT 7 Q RACING TEAM ASD 04:07:04.76 32,30 04:06:04.06
74 BERTINELLI ALESSANDRO M M2 20 DIEFFE BIKE 04:07:08.11 32,29 04:05:06.06
75 ROSSI SIMONE M M4 11 GS CICLISTI GRASSINA ASD 04:07:47.50 32,21 04:03:43.10
76 PADIGLIA MAURO M M3 19 POLISPORTIVA LAME VIBOLT 04:07:50.67 32,20 04:05:38.07
77 SORCI GABRIELE M M1 11 LAKE BIKE TEAM 04:07:51.92 32,20 04:04:25.72
78 CISARRI GIORGIO M M3 20 GS S MACARIO VALERIO BIOLO 04:07:59.40 32,18 04:04:55.55
79 MORETTI ROBERTO M M4 12 ASD GRAMA 04:08:24.58 32,13 04:07:18.38
80 FORNACIARI STEFANO M M1 12 NEW MOTOR BIKE 04:08:26.17 32,12 04:04:24.24
81 BARBAGALLO SALVATORE M M1 13 IL PEDALE NEL CUORE 04:08:41.60 32,09 04:05:42.40
82 TAVOLINI GIANNI M M4 13 ASD TEAM FAUSTO COPPI FERMIGNANO 04:09:01.29 32,05 04:06:00.19
83 NAPPO ANTONIO M M1 14 ASD BIKE E SPORT TEAM 04:09:01.49 32,05 04:08:14.14
84 BARBETTI LEONARDO M M1 15 VELO CLUB GUBBIO 04:09:01.66 32,05 04:05:24.46
85 STOPPA GIACOMO M ELMT 8 ASD CICLO DELTA 2.0 04:09:13.66 32,02 04:07:20.20
86 CARLETTINI STEFANO M M5 6 ASD GRIFO BIKE PERUGIA 04:09:16.17 32,01 04:06:48.48
87 CASADIO STEFANO M M5 7 GS TORPADO SURFING SHOP SPORT PROMOTION 04:09:23.50 32,00 04:05:28.28
88 PROIETTI MARSILIO M M3 21 GC VITERBESE 04:09:30.76 31,98 04:08:19.36
89 PIERINI ALESSANDRO M M1 16 TEAM BIKE EMOTION 04:09:30.90 31,98 04:08:18.20
90 ZENA MAURIZIO M M3 22 INDIVIDUALE 04:09:31.51 31,98 04:08:19.19
91 CONNORS KEVIN M M4 14 BRITISH CYCLING FEDERATION 04:09:37.61 31,97 04:09:12.21
92 RENZI ALESSANDRO M M5 8 POL. AICS AS CICOLAMATORIALE 04:09:45.30 31,95 04:09:30.30
93 COSIMI GIORGIO M M5 9 TEAM MARATHON BIKE ASD 04:09:50.37 31,94 04:07:29.29
94 ZANATTA MASSIMO M M3 23 LEONES TREVISO MTB RACING TEAM 04:09:57.67 31,93 04:09:47.57
95 BOVANI ALESSANDRO M M4 15 GS RAMINI 04:09:59.51 31,92 04:09:35.41
96 DADDI DANIELE M M4 16 OLIMPIA CYCLING TEAM ASD 04:10:02.50 31,92 04:09:00.00
97 DEL CORSO FRANCESCO M M1 17 TEAM STEFAN ASD 04:10:21.16 31,88 04:07:06.06
98 BERNACCHI MASSIMILIANO M M2 21 FAST AND FURIOUS CYCLING TEAM 04:10:28.66 31,86 04:07:59.36
99 PAMPALONI SIMONE M M5 10 ASD GREEN DEVILS 04:10:30.93 31,86 04:07:22.03
100 MORRI DEBORA F MW2 1 TEAM DEL CAPITANO ASD 04:10:34.50 31,85 04:10:24.24
101 MONTALTI FABIO M M5 11 ASD BORELLO CYCLING TEAM 04:10:34.67 31,85 04:09:22.57
102 TENAN LUCA M M6 4 TEKNO BIKE FL. A. SPORTIVA 04:10:51.21 31,81 04:09:17.11
103 VANDEN WIJNGAERT ARNE M M3 24 INDIVIDUALE 04:10:51.75 31,81 04:09:37.15
104 DREONI BRUNO M M6 5 GS MUGELLO TOSCANA BIKE 04:10:56.07 31,80 04:10:42.42
105 BALLINI MARCO M M4 17 CICLI BRANDI ELBA TEAM 04:11:12.10 31,77 04:10:54.00
106 BIANCO EMMANUEL M M3 25 ASSOSS SA SWISS CYCLING 04:11:13.25 31,77 04:07:41.41
107 FRIGIERI GIOVANNI M ELMT 9 NUOVA CORTI TEAM BMC 04:11:21.41 31,75 04:08:46.01
108 RAMACCI ALESSANDRO M M3 26 ASD PRO BIKE RIDING TEAM 04:11:35.82 31,72 04:06:18.12
109 RATTI ALESSANDRO M M1 18 TEAM DE ROSA SANTINI 04:12:18.75 31,63 04:11:58.58
110 IODICE ALESSANDRO M M4 18 ASD LA TORRE - SAN MAURO IN VALLE 04:12:43.36 31,58 04:09:40.26
111 FERRARI RICCARDO M M5 12 ASD GIO´ N´DENT - TEAM ENERVIT 04:12:45.59 31,57 04:12:05.05
112 GUISA GIANLUCA M M3 27 A.S.D. VELO CLUB VALERA 04:12:46.91 31,57 04:10:36.31
113 ESPOSITO EUGENIO M M6 6 ASD CASTELLANA - WOLF 04:12:48.50 31,57 04:12:33.33
114 CARPENETTI CRISTIANO M M3 28 ASD AMICIDEBICI MUJA 04:13:21.40 31,50 04:12:57.10
115 GRAZZINI ALESSANDRO M M5 13 GS CICLI GAUDENZI 04:13:22.67 31,50 04:10:06.27
116 OLMI LEONARDO M M5 14 VITAMIN CYCLING TEAM ASD 04:13:54.76 31,43 04:13:46.36
117 BRAGHIROLI CRISTIAN M M3 29 GS SPORTISSIMO TOP LEVEL 04:14:08.42 31,40 04:13:54.54
118 SIMONELLI STEFANO M M1 19 ASD GFDD ALTOPACK 04:14:13.16 31,39 04:09:12.12
119 PALAZZO MARIO M M1 20 EQUILIBRIO URBANO MILANO 04:14:23.51 31,37 04:12:31.11
120 DESTITO VITO SANDRO M M4 19 ASD RODMAN AZIMUT SQUADRA CORSE 04:14:31.17 31,35 04:13:43.43
121 PIRAZZOLI PAOLO M M7 2 SC PEDALE BIANCONERO LUGO 04:14:32.26 31,35 04:14:24.24
122 VALIERI CRISTIAN M M4 20 TEAM BORGHI RACING 04:14:34.01 31,35 04:10:49.49
123 SARZO SILVIO M M6 7 BIKE FACTOR 04:14:35.30 31,35 04:13:08.08
124 VENUTOLO SABATO MARIA M M2 22 GS CICLI GAUDENZI 04:14:35.50 31,35 04:10:25.30
125 DI TOMMASO ANGELO ENZO M M3 30 TEAM DEL CAPITANO ASD 04:14:37.41 31,34 04:11:27.27
126 GALLUZZO ALESSANDRO M M2 23 ASD CLUB CICLI MALINI 04:14:38.14 31,34 04:12:52.52
127 BERGA DIEGO M M6 8 ASD ALL4CYCLING BDC-FORUM TEAM 04:14:38.75 31,34 04:12:36.35
128 NALDI FRANCESCO M M1 21 TEAM SPARROW CLUB MAGNAVACCA 04:14:39.96 31,34 04:13:31.76
129 GRIFONI CESARE M M4 21 ACD BICISPORTEAM FIRENZE 04:14:42.51 31,33 04:11:01.01
130 FERRETTI ANDREA M M6 9 ASD MC CYCLING TIME 04:14:53.15 31,31 04:14:39.39
131 PRATI MARIA CRISTINA F MW2 2 TEAM DEL CAPITANO ASD 04:15:09.17 31,28 04:14:50.50
132 PALADINI ENNIO M M2 24 ASD ROMA CICLISMO 04:15:09.67 31,28 04:11:53.27
133 BISCARO DANIELE M M5 15 SC SOLIGHETTO 1919 04:15:12.91 31,27 04:14:16.21
134 BRUSCA VINCENZO M M5 16 GS MUGELLO TOSCANA BIKE 04:15:59.26 31,17 04:12:42.42
135 SANTINI ROBERTO M M4 22 TEAM MONARCA TREVI 04:15:59.88 31,17 04:14:58.88
136 PULGA NICOLA M M2 25 ASD CAMIN BIKE TEAM 04:16:01.16 31,17 04:15:01.01
137 POLETTO FABRIZIO M M6 10 GS SCAVEZZON SQUADRA CORSE 04:16:42.27 31,09 04:12:34.34
138 MORELLI PAOLO M M3 31 ASD GREEN DEVILS 04:17:10.41 31,03 04:14:01.31
139 RICCHETTI MARCO M M5 17 IL TEAM PINARELLO 04:17:27.76 31,00 04:15:18.18
140 DE LUCCA ROBERTO M M5 18 PRINCIPE BIKE TEAM ASD 04:17:47.77 30,96 04:17:12.07
141 POLESE SERAFINI LUCA M M5 19 PRINCIPE BIKE TEAM ASD 04:17:48.16 30,95 04:17:14.14
142 BIANCHI GIORGIO M M1 22 LP MUCHLENBACH 04:18:11.30 30,91 04:17:59.59
143 FIUMALBI PAOLO M M6 11 INDIVIDUALE 04:18:47.16 30,84 04:15:28.28
144 DI CARLO CATELLO M M5 20 ASD GREEN DEVILS 04:19:01.17 30,81 04:17:01.01
145 SPIGARELLI LUCA M M2 26 ASD GS PEDALE SPELLANO 04:19:10.52 30,79 04:14:15.15
146 SALZANO SAURO M M5 21 IO BICI ASD 04:19:16.60 30,78 04:17:58.40
147 MARCHETTO PIETRO M M4 23 DEVIL BIKE TEAM COLLEFERRO 04:19:43.00 30,73 04:19:03.03
148 BUGIANI FEDERICO M M4 24 GS RAMINI 04:19:56.66 30,70 04:19:32.32
149 BATTISTINI ROBERTO M M3 32 SPORT TIME SSD A.R.L 04:20:03.40 30,69 04:16:53.00
150 BRIZZOLA ANDREA M M2 27 ASD ROMA CICLISMO 04:20:11.67 30,67 04:18:51.51
151 AVICOLLI TIZIANO M M4 25 ASD BIKESHOP TEAM ROMA 04:20:18.42 30,66 04:15:01.01
152 CIPOLLETTA ROBERTO M M4 26 TEAM PROCYCLING PROMOTECH 04:20:20.86 30,65 04:18:15.16
153 ORLANDI DAVIDE M M2 28 POLISPORTIVA LAME VIBOLT 04:20:22.92 30,65 04:16:34.62
154 NARDI MARCO M M4 27 CRAL ENTI LOCALI SIENA 04:22:03.30 30,45 04:21:44.10
155 PELLEGRINI ANDREA M M4 28 ASD KING´S BIKE PARMA 04:22:33.54 30,39 04:21:09.44
156 TOSCANO MAURIZIO M M4 29 VELOPLUS MAKAKO TEAM 04:22:54.41 30,35 04:21:18.11
157 CHIOLO SALVATORE M M3 33 GS SPORTISSIMO TOP LEVEL 04:22:58.92 30,35 04:19:40.52
158 GAMBARDELLA BIAGIO M M2 29 ASD LR BIKE TEAM 04:23:06.37 30,33 04:19:57.57
159 SGUERRI MAURIZIO M M2 30 ASD LR BIKE TEAM 04:23:07.00 30,33 04:19:59.59
160 TOMA TOMMASO M M3 34 ZEROZERO TEAM-CICLI PUCCIARELLI 04:23:18.34 30,31 04:21:38.24
161 ZACH CHRISTOF M M3 35 INDIVIDUALE 04:23:42.16 30,26 04:20:19.16
162 MAZZOCCO SIMONE M M2 31 VELOPLUS MAKAKO TEAM 04:23:42.66 30,26 04:22:54.46
163 SANZIONINI GABRIELE M M1 23 GS MUGELLO TOSCANA BIKE 04:23:43.17 30,26 04:20:25.07
164 RICCI MASSIMO M M4 30 CICLISTICA MOLASSANA 04:23:47.25 30,25 04:22:19.19
165 PELUSO SALVATORE M M1 24 ACD BICISPORTEAM FIRENZE 04:23:49.82 30,25 04:22:42.32
166 ROGGERINI DANILO M M5 22 GS CICLOSAVINESE 04:23:51.41 30,24 04:20:05.31
167 STEFANELLI RAMON M M2 32 ASD CLUB CICLI MALINI 04:24:06.00 30,22 04:22:19.19
168 MICHELINI DARIO M M5 23 INFINITY CYCLING TEAM ASD 04:24:08.04 30,21 04:22:54.54
169 CERANTOLA FRANCESCO M M7 3 GS PRESSIX - P3 - MITO SPORT 04:24:25.40 30,18 04:21:54.30
170 RESTA FRANCO M M5 24 GS CICLISTI GRASSINA ASD 04:24:25.67 30,18 04:20:27.27
171 MUGNAI TIZIANO M M2 33 GS POCCIANTI 04:24:27.40 30,18 04:23:58.58
172 BONAZZA CESARE M M4 31 CICLOSPORT CODIGORO 04:24:34.69 30,16 04:23:27.27
173 VAN DORPE FILIP M M4 32 INDIVIDUALE 04:24:35.92 30,16 04:23:22.32
174 MILAN DAVIDE M ELMT 10 ASD GC TASSINA ROVIGO 04:24:37.17 30,16 04:23:00.00
175 COSTA STEFANO M M5 25 ASD SS GROSSETO CYCLING TEAM 04:24:38.01 30,15 04:20:40.40
176 OSNATO ANDREA M ELMT 11 SC PEDALE BIANCONERO LUGO 04:24:38.26 30,15 04:24:03.16
177 DE FILIPPO PIETRO M M5 26 GS SPORTISSIMO TOP LEVEL 04:24:41.25 30,15 04:23:00.15
178 MOROSIN LUCA M M3 36 ASD TEAM C & P 04:24:43.31 30,15 04:23:23.23
179 BONIOLO CRISTIAN M M4 33 TEKNO BIKE FL. A. SPORTIVA 04:24:44.12 30,14 04:20:37.37
180 BALDINO ANDREA M M2 34 ASD TEAM BICI SPORT CARRARA 04:24:47.17 30,14 04:20:05.05
181 CIBECCHINI DAVID M M3 37 GS CICLISTI GRASSINA ASD 04:24:51.63 30,13 04:23:01.23
182 VALLICELLI PAOLO M M3 38 PEDAL CLUB OFFICINA A PEDALI ASD 04:25:06.63 30,10 04:21:10.53
183 PIANTONI MAURIZIO M M3 39 ASD TEAM MOROTTI 04:25:24.67 30,07 04:22:25.47
184 GRASSINI ALESSANDRO M M1 25 DIEFFE BIKE 04:25:32.92 30,05 04:21:55.02
185 PIZZO MARINO M M6 12 GS CICLI OLYMPIA 04:25:37.41 30,04 04:25:13.13
186 MAGLIANO MARCO M M3 40 ASD GS PASSATORE 04:25:55.91 30,01 04:22:42.21
187 NOCI STEFANO M M4 34 ASD FREE BIKE CASALGUIDI 04:26:04.64 29,99 04:25:31.54
188 VITI STEFANO M M5 27 GRIP CASTELFIORENTINO 04:26:06.01 29,99 04:22:30.30
189 ISIDORI MARCO M M5 28 ASD GRIFO BIKE PERUGIA 04:26:12.54 29,98 04:23:26.14
190 TANZI SANDRO M M6 13 GS CICLI LUSATTI 04:26:17.82 29,97 04:25:00.42
191 VENTURI MARIO M M5 29 TEAM SCOTT PASQUINI STELLA AZZURRA 04:26:23.67 29,96 04:25:41.07
192 BARBUGLI FABIO M M5 30 ACD BICISPORTEAM FIRENZE 04:26:32.82 29,94 04:26:09.22
193 MALINOWSKI ROGER M M6 14 INDIVIDUALE 04:26:40.53 29,93 04:22:37.23
194 WORRALL PETER MATTHEW M M4 35 ASD BICIMANIA FOSSACESIA 04:26:41.40 29,92 04:23:21.21
195 BULGHERONI MICHELE M M5 31 BICITIME RACING TEAM 04:26:41.92 29,92 04:24:02.72
196 NAPOLETANO FABIO M M3 41 TEAM PROCYCLING PROMOTECH 04:26:47.25 29,91 04:23:38.38
197 SERIPA ALESSIO M M2 35 TEAM BIKE PERIN 04:26:50.27 29,91 04:22:08.08
198 ZAVARELLA VINCENZO M M5 32 ASD SS GROSSETO CYCLING TEAM 04:26:50.67 29,91 04:22:26.07
199 SANTAMARIA ALESSANDRO M M4 36 SBR3 EDILMARK 04:26:51.00 29,90 04:26:23.23
200 RAFFI EMMA F WLWS 1 GC CASTIGLIONESE 04:26:51.00 29,90 04:26:51.00
201 SOVANI ANDREA M M1 26 TEAM BIKE GIPPO COLLE DI VAL D´ELSA 04:27:06.26 29,88 04:26:41.41
202 FORTINI MASSIMO M M3 42 GS MUGELLO TOSCANA BIKE 04:27:10.92 29,87 04:26:01.82
203 MARTINELLI MAURO M M4 37 ASD TEAM INVERCOLOR 04:27:15.26 29,86 04:22:11.11
204 FACCHINI ROBERTO M M5 33 ASD FORUM RAVENNA 04:27:18.00 29,85 04:26:16.16
205 MASSAI LEONARDO M M2 36 INDIVIDUALE 04:27:20.67 29,85 04:22:07.27
206 BALDI ALCIDE M M6 15 ASD TEAM BICISPORT CARRARA 04:27:32.24 29,83 04:24:15.15
207 PASTORELLI PAOLO M M1 27 DIEFFE BIKE 04:27:57.50 29,78 04:24:17.17
208 MARANGON DENIS M M3 43 ASD CICLO DELTA 2.0 04:28:06.92 29,77 04:24:38.62
209 BARTOLINI GABRIELE M ELMT 12 ASD DIDA 1980 04:28:08.34 29,76 04:23:38.24
210 CAPANNELLI ALBERTO M M3 44 DIEFFE BIKE 04:28:40.60 29,70 04:25:01.01
211 GARUGLIERI ALESSANDRO M M5 34 ASD GC ARBIA 04:28:41.76 29,70 04:24:27.36
212 RIDOLFI GABRIELE M M3 45 KTM ASD SCATENATI 04:29:28.75 29,61 04:27:27.55
213 PASSARELLI FLAVIANO M M4 38 ASD VELOROMA 04:29:33.00 29,60 04:28:51.51
214 CAMPORESI CRISTIANO M M3 46 PEDAL CLUB OFFICINA A PEDALI ASD 04:29:48.42 29,58 04:25:52.32
215 ROMITI ANDREA M M5 35 US JUVENTUS LARI 04:29:59.40 29,56 04:25:01.30
216 BIFFOLI ALESSANDRO M M5 36 ACD BICISPORTEAM FIRENZE 04:30:00.90 29,56 04:27:56.00
217 BONSIGNORI FABRIZIO M M7 4 ASD GS PASSUELLO 04:30:02.25 29,55 04:26:08.08
218 CESARI PIETRO M M6 16 ASD TRICYCLE 04:30:09.40 29,54 04:26:58.58
219 CHELI DAVIDE M M1 28 ASD TEAM INVERCOLOR 04:30:15.90 29,53 04:25:11.50
220 BAGLIONI ENRICO M M4 39 TEAM SCOTT PASQUINI STELLA AZZURRA 04:30:17.67 29,52 04:27:56.07
221 TERIACA IGOR M M2 37 MORELLO´S BROTHERS ASD 04:30:50.66 29,46 04:27:28.28
222 PARISI ANTONIO M M5 37 ASD BICIPEDIA 04:31:06.40 29,44 04:29:50.50
223 SERRA ANDREA M M4 40 TEAM DEL CAPITANO ASD 04:31:33.25 29,39 04:28:28.28
224 FALCIONI GIANLUCA M M5 38 TEAM DEL CAPITANO ASD 04:31:33.37 29,39 04:28:27.17
225 CASELLA MARIO M M7 5 INDIVIDUALE 04:31:47.37 29,36 04:28:36.36
226 SMERAGLIUOLO SIMMACO M M5 39 ASD FIORDIFRUTTA GECO EVENTI 04:31:47.57 29,36 04:27:09.47
227 BUSATO FABRIZIO M M6 17 ASD GC SANTA CRISTINA 04:31:52.75 29,35 04:30:30.30
228 SELCI ADRIANO M M8 1 AVIS FAENZA 04:31:56.17 29,35 04:30:59.59
229 VARANI CIRO M M6 18 CC CREMONESE 1891 MTB ARVEDI 04:32:11.00 29,32 04:31:21.21
230 SCARAVONATI PIERANGELO M M5 40 ASD PERSICHELLO CREMONA 04:32:11.00 29,32 04:28:05.05
231 BONVICINI GIOVANNI M M7 6 ASD PERSICHELLO CREMONA 04:32:14.00 29,31 04:28:09.09
232 RAGGINI LUIGINO M M4 41 CICLI MATTEONI - BIANCHI 04:32:20.00 29,30 04:30:39.39
233 BENEDETTI MAURIZIO M M4 42 ASD SLOWTEAM 04:32:22.25 29,30 04:28:14.14
234 BORTOLOTTI FRANCO M M6 19 ASD SLOWTEAM 04:32:23.06 29,30 04:28:13.13
235 MASIERO MAURO M M6 20 ASD CICLISTICA PIOVESE 04:32:38.07 29,27 04:31:08.08
236 BRATTI PAOLO M M1 29 VITAMINA TEAM 04:32:55.76 29,24 04:30:37.56
237 GRANATI CARLO M M7 7 GS CICLI D´ANGELI RIETI 04:33:01.25 29,23 04:29:49.05
238 FORMENTO GIANLUCA M M5 41 TEAM PERUFFO 04:33:12.67 29,21 04:31:21.57
239 CAUFIELD SEAN M M5 42 GS CICLI GAUDENZI 04:33:13.99 29,21 04:30:21.69
240 TERRIBILE SALVATORE M M2 38 ASD BIKESHOP TEAM ROMA 04:33:22.89 29,19 04:31:02.19
241 MILANI SIMONE M M4 43 IL TEAM PINARELLO 04:33:36.07 29,17 04:33:10.10
242 RICCI CHIARA F MW1 1 ASD TEAM 2014 04:33:36.76 29,17 04:33:12.36
243 MARCHETTI MASSIMO M M4 44 ASD TEAM 2014 04:33:37.29 29,16 04:33:15.15
244 FRULLANI BRUNO M M3 47 GSC MOIANO 04:33:40.42 29,16 04:31:33.33
245 TOPPAZZINI VALTER M M4 45 UC SANDANIELESI 04:33:52.00 29,14 04:28:55.55
246 PAVIERA LUCA M M4 46 TEKNO BIKE FL. A. SPORTIVA 04:33:59.92 29,13 04:29:50.22
247 MAURAMATI MAURIZIO M M5 43 ASD ALL4CYCLING BDC-FORUM TEAM 04:34:00.92 29,12 04:32:22.32
248 PREGASI ALESSANDRO M M3 48 VALDARNO PROJECT CYCLING TEAM ASD 04:34:08.72 29,11 04:30:14.14
249 VISANI ANDREA M M4 47 GS SPORTISSIMO TOP LEVEL 04:34:16.63 29,10 04:30:54.23
250 CUSMATI MARCO M M3 49 GS SPORTISSIMO TOP LEVEL 04:34:17.07 29,09 04:32:35.35
251 COCCONI MAURO M M5 44 GS SPORTISSIMO TOP LEVEL 04:34:18.06 29,09 04:30:56.56
252 SALETTI SILVIO M M4 48 SERENA MANCINI ASD 04:34:19.17 29,09 04:31:49.49
253 SANTUCCI OMAR M M3 50 DIEFFE BIKE 04:34:26.16 29,08 04:32:58.58
254 BARONI FRANCO M M5 45 ASD BICIPEDIA 04:34:30.42 29,07 04:32:48.42
255 PEPI MAURIZIO M M6 21 G.S.C. TOR SAPIENZA ROMA 04:34:36.53 29,06 04:33:38.38
256 FORLAI GIACOMO M M3 51 ASD BICIPEDIA 04:34:41.78 29,05 04:32:31.38
257 ROSSI FRANCO M M5 46 EROICA ITALIA SSD 04:34:42.17 29,05 04:34:31.31
258 TURCHI LUCA M M5 47 TEAM ORSO ON BIKE ASD 04:34:43.66 29,05 04:31:51.56
259 RADOGNA PASQUALE M M7 8 SC CASAMASSIMA 04:34:45.63 29,04 04:31:46.03
260 GIURLANDA DAVIDE M M1 30 ASD SPORTIVA LANZADA 04:34:47.41 29,04 04:34:17.17
261 SORMANNI PIERLUIGI M M4 49 ASD SS GROSSETO CYCLING TEAM 04:35:25.38 28,97 04:31:27.27
262 GUERNIERI GIACOMO M M4 50 GREEN BIKE MANIA ASD 04:35:31.51 28,96 04:32:10.21
263 BARELLINI ANDREA M M4 51 ASD L ABELLE EQUIPE 04:35:49.92 28,93 04:34:23.32
264 MARTINELLI EFISIO ROBERTO M M5 48 CICLO TEAM SAN GINESE 04:36:04.91 28,91 04:34:19.31
265 CHIOLERO VALERIO M M4 52 BICI CAMOGLI GOLFO PARADISO 04:36:14.25 28,89 04:32:17.17
266 MERRITT JOANNE F MW2 3 INDIVIDUALE 04:36:14.25 28,89 04:35:36.36
267 DE RANIERI MICHELE M M4 53 ASD QUARANTASEIESIMA 04:36:15.67 28,89 04:32:58.27
268 ROTILI PAOLO M M5 49 ASD SS GROSSETO CYCLING TEAM 04:36:43.91 28,84 04:32:44.51
269 BETTI LUCA M M5 50 ASD SS GROSSETO CYCLING TEAM 04:36:44.16 28,84 04:33:21.21
270 MENCARELLI FLAVIO M M4 54 ASD SS GROSSETO CYCLING TEAM 04:36:44.17 28,84 04:32:22.07
271 FACCO DIEGO M M3 52 ASD TBR 04:37:19.40 28,78 04:36:39.39
272 FANFONI SERGIO M M5 51 GS CICLOSAVINESE 04:37:21.01 28,77 04:35:44.44
273 MANCINI FRANCO M M3 53 GC AMIATA 04:37:29.66 28,76 04:32:46.46
274 BANFI MAURO M M6 22 VELOPLUS MAKAKO TEAM 04:37:34.16 28,75 04:34:30.30
275 CARONTI MASSIMILIANO M M4 55 GC MELANIA 04:37:36.67 28,75 04:36:56.07
276 PILLOSU SIMONE M M1 31 CICLISTICA MOLASSANA 04:37:36.75 28,75 04:34:56.15
277 ZANCA LEONARDO M M7 9 TEAM BICISPORT FABRIANO 04:37:43.49 28,73 04:36:22.39
278 ORI UGO M M6 23 ASD RUOTA LIBERA 04:37:45.40 28,73 04:35:15.15
279 DOLZANI GILBERTO M M6 24 ASD RUOTA LIBERA 04:37:46.00 28,73 04:35:17.17
280 CIAMPICA GABRIELE M ELMT 13 MTB CASTIGLIONE DEL LAGO 04:37:54.67 28,72 04:34:29.27
281 TORISELLI TEO M M2 39 ASD SESSANTALLORA 04:38:03.75 28,70 04:34:48.65
282 PIAZZOLI GIACOMO M M4 56 DT BIANCHI 04:38:38.51 28,64 04:36:17.31
283 CIAPETTI GIANNI M M6 25 ASD BICIPEDIA 04:38:39.88 28,64 04:36:57.48
284 MARCHESI MAURIZIO M M1 32 TEAM ASC BRESCIA 04:38:56.09 28,61 04:35:44.44
285 ROELS BART M M1 33 INDIVIDUALE 04:38:57.51 28,61 04:36:44.31
286 TERRACINA MASSIMO M M5 52 ASD AQUILOTTI CERVIA 04:39:01.00 28,60 04:37:48.48
287 GESUATO DANIELE M M5 53 BIKE FACTOR 04:39:08.05 28,59 04:37:40.40
288 MOSER IVAN M M6 26 ZOCK GRUPPE CICLOEQUIPE 04:39:41.11 28,53 04:38:17.17
289 CATENI MARCO M M3 54 GS CICLOSAVINESE 04:39:42.50 28,53 04:35:56.40
290 DONIZETTI GIACOMO M M7 10 GS SPORTISSIMO TOP LEVEL 04:39:44.92 28,53 04:38:12.22
291 MACDONALD NIALL M M6 27 INDIVIDUALE 04:39:57.74 28,51 04:38:29.29
292 BERTOLO ENRICO M M3 55 ASD GALLIERA VENETA - AMICI IN FUGA 04:39:59.36 28,50 04:37:56.16
293 CAPRARELLI SALVATORE M M5 54 ASD DALZERO.IT 04:40:00.92 28,50 04:38:30.82
294 VERDE STEFANO M M5 55 BICI PLANET TEAM ASD 04:40:12.17 28,48 04:39:13.13
295 COTUMACCIO MASSIMO M M4 57 TEAM PROCYCLING PROMOTECH 04:40:15.66 28,47 04:38:09.09
296 BALDASSATICI FEDERICA F MW2 4 GS CICLI FALASCHI 04:40:17.50 28,47 04:39:30.30
297 BRENNA DAVIDE M M3 56 ASD RAM BIKE 04:40:19.16 28,47 04:39:45.45
298 PIANELLI EMANUELE M M3 57 TEAM CINGOLANI - SPECIALIZED 04:40:44.66 28,43 04:38:12.26
299 GALLI ALESSIA F MW1 2 TEAM CINGOLANI - SPECIALIZED 04:40:44.66 28,43 04:38:12.56
300 ZOLI MARCO M M6 28 ACD BICISPORTEAM FIRENZE 04:40:45.40 28,42 04:39:26.00
301 DELLAPASQUA MIRKO M ELMT 14 ASD OPICS SAN VITO - LGL BIKE TEAM 04:41:00.00 28,40 04:38:12.12
302 DELLAPASQUA DAVIDE M M2 40 ASD OPICS SAN VITO - LGL BIKE TEAM 04:41:00.25 28,40 04:38:10.10
303 BRUNO MARIO M M3 58 VELOCLUB PONTEDERA 04:41:00.62 28,40 04:40:14.22
304 TRINCA GIACOMO M M4 58 TEAM ARMISTIZIO ZEROLITE 04:41:01.00 28,40 04:39:50.50
305 COLOMBANI FILIPPO M M3 59 ASD GCM MIGLIARINO 04:41:03.24 28,39 04:37:22.22
306 BOARI EMILIANO M M3 60 ASD GCM MIGLIARINO 04:41:03.66 28,39 04:40:21.26
307 ALEOTTI NICOLA M M3 61 PEDAL CLUB OFFICINA A PEDALI ASD 04:42:47.28 28,22 04:38:51.08
308 MESTIERI MICHELE M M6 29 GC EXTREME BIKE 04:43:01.76 28,20 04:39:14.36
309 ANGELINI FEDERICO M M1 34 ASD GS PEDALE SPELLANO 04:43:12.41 28,18 04:38:17.17
310 SPOSINI FEDERICO M M3 62 ASD TESTI CICLI 04:43:21.16 28,16 04:38:28.28
311 ZIVIERI ENRICO M M4 59 A.S.D. COACH CYCLING TEAM TEST 04:43:29.87 28,15 04:42:09.47
312 PANICO CIRO M M1 35 TEKNO BIKE FL. A. SPORTIVA 04:43:31.47 28,15 04:41:58.17
313 CAGNO DENIS M M3 63 IL TEAM PINARELLO 04:43:39.40 28,13 04:43:01.01
314 GARUGLIERI GIANCARLO M M6 30 ASD BICIPEDIA 04:43:40.41 28,13 04:40:10.10
315 PERRUCCHINI STEFANO M M4 60 TEAM ARMISTIZIO ZEROLITE 04:43:49.15 28,12 04:42:21.21
316 DALLA LIBERA LUCA M M4 61 LEE COUGAN GRAVITY PROJECT 04:43:59.07 28,10 04:43:20.20
317 MARZANA ROBERTA F MW2 5 TEAM RECORD BIKE 04:44:12.16 28,08 04:44:01.01
318 PIERESSA MAURO M M5 56 TEAM RECORD BIKE 04:44:12.75 28,08 04:42:37.55
319 ZANATTA IVO M M4 62 A.S.D SANT´ANNA TEAM 04:44:14.67 28,08 04:39:37.67
320 SAMOGIZIO MIRKO M M3 64 TEKNO BIKE FL. A. SPORTIVA 04:44:19.24 28,07 04:40:11.14
321 RAGGI LUCA M M5 57 CICLO TEAM SAN GINESE 04:44:22.50 28,06 04:41:58.58
322 MASSI FEDERICO M M4 63 GS SPORTISSIMO TOP LEVEL 04:44:30.51 28,05 04:42:19.19
323 CARLINI FRANCESCO M M1 36 GS CICLI GAUDENZI 04:44:30.66 28,05 04:41:17.36
324 PLACCI PIER UMBERTO M M5 58 AVIS FAENZA 04:44:40.85 28,03 04:43:01.75
325 CHIARI VINICIO M M6 31 CICLI MATTEONI - BIANCHI 04:44:51.25 28,01 04:43:11.11
326 BORELLI GIANNI M M6 32 ASD NUOVO PARCO DEI CILIEGI 04:44:58.09 28,00 04:43:52.52
327 ANDREINI MASSIMILIANO M M4 64 AVIS BIKE PISTOIA ASD 04:45:05.00 27,99 04:43:23.23
328 VONCI MARCO M M7 11 GS MUGELLO TOSCANA BIKE 04:45:05.92 27,99 04:43:54.82
329 PARISI ANTONINO M M1 37 ASD PANE E FANTASIA OP NATURA 04:45:06.40 27,99 04:42:02.02
330 LUCIANI ATHOS M M6 33 ASD TEAM VALLONE 04:45:26.07 27,96 04:41:21.21
331 GIRO MARCO M M6 34 NOSURRENDER CYCLING TEAM ASD 04:45:31.00 27,95 04:42:33.33
332 PESCI LUCA M M5 59 ASD BICIPEDIA 04:45:46.15 27,92 04:43:39.39
333 BUGGIA GIANLUIGI M M6 35 ACD BICISPORTEAM FIRENZE 04:45:56.24 27,91 04:44:48.48
334 BALO´ GIOVAN BATTISTA M M4 65 GS CICLOSAVINESE 04:45:58.12 27,91 04:44:14.14
335 MALIZIA MASSIMO M M5 60 ASD GRIFO BIKE PERUGIA 04:46:02.58 27,90 04:42:38.18
336 RIGHINI ROBERTO M M8 2 ACD BICISPORTEAM FIRENZE 04:46:08.50 27,89 04:43:15.40
337 BORRANI MASSIMO M M3 65 MORELLO´S BROTHERS ASD 04:46:18.16 27,87 04:42:54.54
338 PIERNERA PALMIERI LUIGI M M4 66 ASD IL GIRASOLE 04:46:28.91 27,86 04:42:42.01
339 ZAMBRINI GIORGIO M M6 36 POLISPORTIVA LAVEZZOLESE 04:46:36.65 27,84 04:44:19.35
340 PIERACCINI PAOLO M M4 67 TEAM FOCUS FANELLI BIKE 04:46:51.86 27,82 04:46:04.46
341 BONFIGLIOLI BRUNO M M7 12 IL TEAM PINARELLO 04:47:03.62 27,80 04:45:31.31
342 MARCHI MARCO M M3 66 BICI PLANET TEAM ASD 04:47:05.04 27,80 04:43:22.22
343 GHISOLFI ACHILLE M M8 3 A.S.D. SERSE COPPI 04:47:16.41 27,78 04:43:52.52
344 CORDOVANI WALDERO M M5 61 ASD DIDA 1980 04:47:24.31 27,77 04:42:57.57
345 ERRATI FABIO M M3 67 ASD DIDA 1980 04:47:24.74 27,77 04:42:55.64
346 UGOLINI ANDREA M M4 68 ASD DIDA 1980 04:47:24.74 27,77 04:42:57.54
347 PORZIO ALESSANDRO M M2 41 ASD DIDA 1980 04:47:25.01 27,76 04:42:58.58
348 GROSSO GIUSEPPE M M4 69 FREEDOM BIKE 04:47:26.74 27,76 04:44:02.34
349 AMORUSI SALVATORE FERNANDO M M6 37 ADELANTE CYCLING TEAM 04:47:38.16 27,74 04:45:32.32
350 DELLA ROCCA SIMONE M M3 68 ASD CLUB CICLI MALINI 04:47:58.38 27,71 04:46:10.10
351 GATTI MATTEO M M4 70 ASD CICLISMO OLTREPO 04:48:00.17 27,71 04:46:08.07
352 ROSTEGHIN SILVIA F MW2 6 ASD TEAM CYCLE SPORT 04:48:08.31 27,70 04:45:57.57
353 ASTOLFI ROBERTO M M6 38 ASD TEAM CYCLE SPORT 04:48:09.33 27,69 04:45:55.33
354 BORGHI MAURO ASTOLFO M M6 39 BICI PLANET TEAM ASD 04:48:13.16 27,69 04:44:31.31
355 BONDI CLAUDIO M M7 13 ENDAS MAMELI MONTI 04:48:15.25 27,68 04:47:29.05
356 APICELLA MAURIZIO M M4 71 CSI CAVA DEI TIRRENI 04:48:21.17 27,67 04:44:46.46
357 DELLA ROCCA MARCO M M4 72 CSI CAVA DEI TIRRENI 04:48:21.74 27,67 04:44:49.64
358 RAMPAZZO ANGELO M M2 42 TEAM ARMISTIZIO ZEROLITE 04:49:01.74 27,61 04:48:31.34
359 DI LENARDO KIM M M3 69 INDIVIDUALE 04:49:15.85 27,59 04:44:42.75
360 CECCARELLI LUCA M M4 73 ASD AREZZO GRAVITY 04:49:19.50 27,58 04:46:42.40
361 GOSLING DANIEL M M1 38 UN-ATTACHED CONNACHT 04:49:30.24 27,56 04:49:06.06
362 ROMAGNOLI ROBERTO M M6 40 SPILLA TEAM 04:49:31.40 27,56 04:45:32.32
363 FAGGI FILIPPO M ELMT 15 VAIANO TEAM FONDRIEST 04:49:34.50 27,56 04:44:53.53
364 BARDELLI MASSIMO M M6 41 GS PRIMO E PIZZA BIKE 04:49:34.50 27,56 04:44:52.10
365 PERON EDOARDO M M6 42 ASD GC SANTA CRISTINA 04:49:40.99 27,55 04:48:19.09
366 PLANO GIOVANNI M M4 74 IL TEAM PINARELLO 04:49:42.62 27,55 04:47:35.22
367 CRISTOFORI GIANNI M M4 75 ASD RUOTA LIBERA 04:49:49.74 27,53 04:48:25.04
368 MELANDRI MASSIMO M M5 62 SC PEDALE BIANCONERO LUGO 04:49:51.34 27,53 04:49:18.18
369 TOLLIN MARCO M M4 76 BIKE FACTOR 04:50:06.34 27,51 04:48:39.39
370 SAVIOLI FILIPPO M M4 77 ASD CICLISTICA PIOVESE 04:50:19.24 27,49 04:48:47.47
371 BIASIO GIANNI M M7 14 ASD VICENZA BIKE 04:50:22.75 27,48 04:49:14.14
372 CORTINOVIS DANILO M M5 63 INDIVIDUALE 04:50:32.91 27,47 04:47:34.21
373 PALMIERI ANGELO M M5 64 ASD NUOVO PARCO DEI CILIEGI 04:51:18.49 27,39 04:48:42.19
374 MANZUTTO GIOVANNI M M6 43 ASD PETIT VELO´ 04:51:23.41 27,39 04:45:59.59
375 MARSIGLIO ELISABETTA F MW2 7 BIKE FACTOR 04:51:25.25 27,38 04:51:14.14
376 VETTORE CLAUDIO M M4 78 ASD CICLISTICA PIOVESE 04:51:33.75 27,37 04:50:01.01
377 VAN DER NAP ROBERT M M1 39 NTFU (HL) 04:51:43.66 27,36 04:49:01.26
378 MOSTI ANTONIO M M5 65 TEAM MV MASSA 04:52:05.25 27,32 04:49:02.02
379 MOSTI MASSIMILIANO M M4 79 TEAM MV MASSA 04:52:05.50 27,32 04:49:03.03
380 BATTILANA MORENO M M3 70 TEAM ARMISTIZIO ZEROLITE 04:52:06.92 27,32 04:51:39.02
381 SERENI FRANCESCO M M1 40 TEAM SCOTT PASQUINI STELLA AZZURRA 04:52:19.75 27,30 04:49:08.35
382 BELTRAMELLI LUCA M M1 41 ASD ANNOPRIMO 04:52:47.97 27,26 04:47:10.27
383 BUSATO STEFANO M M3 71 IL TEAM PINARELLO 04:53:07.40 27,22 04:50:11.20
384 SANTIN BRUNO M M5 66 IL TEAM PINARELLO 04:53:10.10 27,22 04:48:24.24
385 NORIS MAURO M M4 80 INDIVIDUALE 04:53:15.24 27,21 04:50:21.04
386 MONTI ENRICO M M5 67 GIANLUCA FAENZA TEAM 04:53:17.16 27,21 04:52:04.04
387 MAROLLI ENRICO M M2 43 ASD TOSCO-ROMAGNOLA 04:53:29.50 27,19 04:50:28.00
388 BENINI LUCA M M2 44 SPECIALISSIMA BIKE TEAM 04:53:31.37 27,19 04:53:16.16
389 PESCAROLO MASSIMO M M3 72 ASD CICLISTICA PIOVESE 04:53:41.00 27,17 04:52:07.07
390 BERNABEI GIADA F MW1 3 ASD CICLISTICA PIOVESE 04:53:41.36 27,17 04:52:08.08
391 AROLDI LUCA M M4 81 VELOPLUS MAKAKO TEAM 04:53:46.99 27,16 04:50:04.59
392 GRASSI DANILO M M6 44 ASD PERSICHELLO CREMONA 04:53:53.67 27,15 04:52:10.10
393 GHISOLFI MAURO M M7 15 ASD PERSICHELLO CREMONA 04:53:53.90 27,15 04:52:09.70
394 GASPERINI PAOLO M M7 16 GC FAUSTO COPPI CESENATICO 04:53:56.12 27,15 04:52:26.26
395 FERRUCCI LUCA M M5 68 ASD GRIFO BIKE PERUGIA 04:54:33.63 27,09 04:52:05.03
396 ZUCCA DANIELE M M2 45 CICLISTICA BRESCIA STELLA CARNI 04:54:35.16 27,09 04:53:35.35
397 OSIO GIANMARIO M M1 42 CRAL POSTE LOMBARDIA 1 04:55:17.44 27,02 04:53:35.44
398 GIANNICOLO DANIELE M M3 73 ASD BIKE ACTION TEAM 04:55:20.50 27,02 04:55:20.50
399 PESENTI STEFANO M M5 69 CRAL POSTE LOMBARDIA 1 04:55:24.13 27,01 04:53:43.43
400 SCARDELLATO ADRIANO M M7 17 IL TEAM PINARELLO 04:55:45.16 26,98 04:53:34.34
401 DIERICKX JOHN M M6 45 INDIVIDUALE 04:55:52.49 26,97 04:54:37.37
402 RENAI MARCO M M3 74 MORELLO´S BROTHERS ASD 04:55:55.41 26,97 04:52:32.01
403 BRINDLEY PAUL M M6 46 INDIVIDUALE 04:56:34.25 26,91 04:54:16.16
404 SCOMPARIN VALTER M M6 47 GC SETTECOLLI FILOTTRANO 04:56:49.24 26,89 04:53:07.07
405 D´AVERSA ENZO M M2 46 ASD NOVARICAMBI 04:56:49.31 26,89 04:54:43.43
406 CITRIGNO GAETANO M M4 82 ASD GEMME BIKE 04:56:51.49 26,88 04:52:32.32
407 SPAZZINI MAURIZIO M M7 18 TEAM RODELLA 04:56:56.16 26,87 04:55:43.16
408 LUCCI ESTERINO M M6 48 IL TEAM PINARELLO 04:56:59.40 26,87 04:52:09.00
409 ZANNONI RICCARDO M M5 70 ASD FORUM RAVENNA 04:57:02.29 26,87 04:56:49.49
410 AMBROSIANI CRISTIAN M M3 75 ASD PERSICHELLO CREMONA 04:57:04.41 26,86 04:54:45.45
411 ANTOLA DAVIDE M M4 83 ASD TEAM BICI SPORT CARRARA 04:57:12.50 26,85 04:52:21.21
412 CONFALONIERI EMILIANO CESARE M M6 49 GC DROP 04:57:12.75 26,85 04:56:27.27
413 MALAVASI VANNI M M6 50 ASD VELOCLUB FERRARA 04:57:37.50 26,81 04:55:28.28
414 PETESI FAUSTO M M5 71 PEDALE ORCEANO AB ENERGY 04:57:40.91 26,81 04:57:07.21
415 PALAGI ROBERTO M M6 51 ASD TEAM BICISPORT CARRARA 04:58:03.75 26,77 04:54:47.05
416 SONNATI MARCELLO M M4 84 ASD CYCLING - BLOW RACING TEAM 04:58:07.49 26,77 04:57:17.39
417 MAINARDI NICOLA M M5 72 GS CICLI GAUDENZI 04:58:07.74 26,77 04:57:16.16
418 CECIONESI ALESSANDRO M M4 85 CICLISTICA GREVIGIANA 04:58:13.75 26,76 04:57:28.65
419 MORGAGNI LUCA M M5 73 ASD RUBICONE CYCLING 04:58:16.99 26,75 04:56:17.39
420 SIMONCELLI STEFANO M M4 86 ASD BIZIO´S TEAM 04:58:29.24 26,74 04:53:03.03
421 CITERNI GIANLUCA M M4 87 TEAM MARATHON BIKE ASD 04:58:29.74 26,74 04:53:02.54
422 DE LAZZARI AGOSTINO M M5 74 ASD GC SANTA CRISTINA 04:58:39.63 26,72 04:56:21.43
423 PRATI CLELIO M M5 75 TEAM BIKE PERIN 04:58:40.16 26,72 04:55:12.12
424 SARGENTINI ANDREA M M6 52 GC CASTIGLIONESE 04:58:40.41 26,72 04:55:10.01
425 FANTACCINI GIUSEPPE M M5 76 GC CASTIGLIONESE 04:58:40.47 26,72 04:55:11.11
426 RICCI ADRIANO M M6 53 CLUB PARCO ALPI APUANE 04:59:14.00 26,67 04:55:51.51
427 ARMILLIS GIANLUCA M M2 47 ASD CYCLON STORE IT 04:59:17.91 26,66 04:57:58.01
428 BERTONI CHIARA F ELWS 1 SC PEDALE BIANCONERO LUGO 04:59:18.66 26,66 04:58:46.46
429 ANCONELLI MATTEO M ELMT 16 POLISPORTIVA LAVEZZOLESE 04:59:19.39 26,66 04:57:58.58
430 PRINCIC FRANCESCO M M7 19 ASD UC CAPRIVESI 04:59:27.99 26,65 04:58:52.59
431 NANNI ALESSANDRO M M4 88 CASTIGLIONESE APD 04:59:48.79 26,62 04:56:40.19
432 CIANI MARCO M M5 77 CASTIGLIONESE APD 04:59:49.00 26,62 04:56:42.42
433 VISENTIN ROBERTO M M6 54 INDIVIDUALE 04:59:49.00 26,62 04:57:13.13
434 CAFFETTIERI GIANLUCA M M6 55 CASTIGLIONESE APD 04:59:49.25 26,62 04:56:40.15
435 BAIOCCO GIUSEPPE M M7 20 ASD GRIFO BIKE PERUGIA 05:00:03.79 26,60 04:57:35.19
436 CONSORTI LEONARDO M M3 76 ASD TEAM RDB CYCLING 05:00:48.21 26,53 04:59:09.09
437 DESTRO ALESSANDRO M M4 89 GRUPPO CICLISTICO NOVENTANA 05:00:48.75 26,53 04:59:08.05
438 CUOMO VINCENZO M M4 90 ASD TORRETTA BIANCA 05:00:54.99 26,52 04:57:18.09
439 GIOIOSO NUNZIATO M M6 56 SC CASAMASSIMA 05:01:14.24 26,49 04:58:17.17
440 SPINEDA DE´ CATTANEIS FLAVIO M M7 21 TEAM 2 RUOTE GIUSSANO ASD 05:01:33.40 26,46 04:56:08.20
441 MASTROMARTINO LORENZO M M5 78 ASD CILENTO BIKE CICLIDEA 05:02:03.65 26,42 05:00:48.25
442 GUARDIGLI ALESSANDRO M M7 22 ENDAS MAMELI MONTI 05:02:06.89 26,42 04:59:05.05
443 PICCARDO CLAUDIO M M6 57 GS TERRALBA 05:02:11.67 26,41 05:00:11.57
444 GAMBI FRANCO M M7 23 GS MUGELLO TOSCANA BIKE 05:02:27.98 26,38 04:58:40.68
445 LODOLI ALESSIO M M2 48 BICI PLANET TEAM ASD 05:02:48.26 26,35 04:59:04.16
446 AMADORI CLAUDIO M M5 79 ASD VILLA SAN MARTINO 05:03:29.17 26,29 04:58:35.07
447 CAVICCHIO LUCIO M M5 80 TEKNO BIKE FL. A. SPORTIVA 05:03:29.67 26,29 04:58:14.14
448 TRAPANI MARIA COSTANZA F MW2 8 BIKE REVOLUTION SQUADRA CORSE 05:03:42.75 26,28 05:03:10.35
449 GAVINA ANDREA M M5 81 ASD NUOVO PARCO DEI CILIEGI 05:03:50.66 26,26 04:59:47.06
450 BRUGNOLA GUGLIELMO M M4 91 ASD WELLNESS IN MOTION 05:04:02.41 26,25 05:03:07.21
451 BRUSCHETTI VINCENZO M M6 58 ASD CS CONCORDIA CICLI BORTOLOTTO 05:04:03.00 26,25 05:03:16.16
452 ZANI ALESSANDRO M M1 43 SC PEDALE BIANCONERO LUGO 05:04:21.55 26,22 05:03:43.15
453 PRATI MAURIZIO M M4 92 CICLI NERI TEAM 05:04:28.42 26,21 05:03:23.12
454 PETRINI LUCIA F MW1 4 CICLI NERI TEAM 05:04:28.42 26,21 05:03:23.23
455 FRANZONI DANIELE M M4 93 POLISPORTIVA VALSANTERNO 2009 05:05:04.16 26,16 05:02:30.30
456 CIGOGNINI MASSIMO M M6 59 GS SPORTISSIMO TOP LEVEL 05:05:04.25 26,16 05:02:27.27
457 GABELLINI ANDREA M ELMT 17 ASD CICLISMO MONTECCHIO 05:05:10.65 26,15 05:03:39.15
458 BARTOLI LUCA M M5 82 CICLISTICA GREVIGIANA 05:05:11.75 26,15 05:04:27.55
459 ANGIOLI GIANFRANCO M M7 24 MARRADI BIKE 05:05:15.15 26,14 05:01:22.05
460 GABELLINI WALTER M M7 25 ASD CICLISMO MONTECCHIO 05:05:19.49 26,14 05:03:48.09
461 MILANESI ROBERTO M M6 60 SCO CAVENAGO 05:05:24.25 26,13 05:03:58.58
462 COCCA CARMINE M M3 77 MATERA CYCLING 05:05:30.75 26,12 05:01:09.35
463 DELL´AMICO LUIGI M M6 61 CLUB PARCO ALPI APUANE 05:05:34.65 26,12 05:02:10.05
464 TISO GINO M M5 83 ASD PIAZZOLA CYCLING 05:05:36.00 26,11 05:04:22.22
465 FORZINI LORENZO M M2 49 GRUPPO MTB PEDALANDO ASD 05:06:08.16 26,07 05:02:53.53
466 VERONESE MASSIMO M M5 84 GC EXTREME BIKE 05:06:24.42 26,04 05:01:10.10
467 PAVAN ADRIANO M M4 94 ASD GC ACLI SARZANO 05:06:24.67 26,04 05:02:15.15
468 BACCIGOTTI STEFANO M M6 62 ASD CLUB CICLI MALINI 05:06:26.41 26,04 05:04:38.21
469 TINTORI PAOLO M M4 95 ACD BICISPORTEAM FIRENZE 05:06:38.41 26,02 05:02:56.21
470 DURAZZI LUCA M M3 78 GREEN BIKE MANIA ASD 05:07:11.90 25,98 05:02:41.40
471 GOTI ROBERTO M M5 85 GREEN BIKE MANIA ASD 05:07:12.14 25,98 05:02:42.04
472 BENCISTA´ NICOLA M M4 96 CICLISTICA GREVIGIANA 05:07:36.86 25,94 05:06:53.86
473 TARONI CRISTIAN M M2 50 POLISPORTIVA TOZZONA 05:07:37.25 25,94 05:05:38.38
474 COLOMBO MARIO M M5 86 MYG CYCLING TEAM 05:07:42.67 25,93 05:05:33.27
475 FEDERICI MIRKO M M5 87 ASD VILLA SAN MARTINO 05:08:16.91 25,89 05:03:24.31
476 AMBROSINI DANIELE M M5 88 ASD VILLA SAN MARTINO 05:08:17.63 25,89 05:03:27.27
477 BONCI CELINE F MW2 9 INDIVIDUALE 05:08:34.26 25,86 05:07:46.46
478 AMICO EMILIANO M M2 51 ASD PERSICHELLO CREMONA 05:08:35.16 25,86 05:06:48.48
479 GUASCO ALDO M M5 89 G.S. COOP. DRUENTO 05:08:37.50 25,86 05:07:50.10
480 ROVELETI PAOLO M M2 52 GS AVIS FIORENZUOLA 05:08:52.74 25,84 05:03:47.34
481 CAPPELLI MIRCO M M3 79 DLF VIRGINIA 05:08:57.58 25,83 05:03:54.38
482 NANNI LUCA M M5 90 TEAM TREDICI BIKE 05:09:15.02 25,80 05:07:34.34
483 VALDISERRI VALENTINO M M4 97 TEAM TREDICI BIKE 05:09:16.50 25,80 05:07:36.36
484 BORAGGINI ROBERTO M M4 98 TEAM TREDICI BIKE 05:09:17.25 25,80 05:07:37.37
485 MOLINELLI FABIO PAOLO M M5 91 CASSINIS CYCLING TEAM 05:09:20.90 25,80 05:07:49.80
486 LEPORATI LUIGI M M6 63 GS SPORTISSIMO TOP LEVEL 05:09:24.49 25,79 05:07:45.45
487 MAITO VALERIA F MW2 10 ASD CARISMA TEAM 05:09:25.00 25,79 05:08:45.45
488 GIBERTONI CORRADO M M6 64 GS SPORTISSIMO TOP LEVEL 05:09:25.39 25,79 05:07:01.01
489 FORTI EMANUELE M M5 92 GS SPORTISSIMO TOP LEVEL 05:09:25.80 25,79 05:07:46.46
490 MARIANI ROBERTO M M7 26 ASD FORUM RAVENNA 05:09:26.58 25,79 05:07:37.37
491 LORETI FABIO M M5 93 POLISPORTIVA LAVEZZOLESE 05:09:29.65 25,78 05:08:08.25
492 DI BIASE COSIMO M M5 94 ASC AVIS SAN CESARIO 05:09:30.17 25,78 05:07:22.22
493 DE GREGORIO PIERANGELO M M6 65 CICLI MATTEONI - BIANCHI 05:09:35.00 25,78 05:05:50.50
494 NUTINI SIMONE M M5 95 CICLISTICA GREVIGIANA 05:10:08.56 25,73 05:09:22.46
495 FALCINI STEFANO M M5 96 CICLISTICA GREVIGIANA 05:10:38.74 25,69 05:09:56.64
496 MALERBA CATERBO M M6 66 FREEDOM BIKE 05:10:52.24 25,67 05:07:27.14
497 BARTOLINI ALESSIO M ELMT 18 ASD DIDA 1980 05:12:12.06 25,56 05:07:43.43
498 MARTINI LAUREANO M M6 67 ASD TORMATIC PEDALE SETTEMPEDANO 05:12:24.64 25,54 05:07:45.45
499 CHERELLA ANGELO M M5 97 ASD BIKE STUDIO TEAM 05:12:26.06 25,54 05:09:40.40
500 AGOSTINI SERGIO M M5 98 ASD GC SANTA CRISTINA 05:12:29.30 25,54 05:11:10.10
501 ROSATI DANIELE M M7 27 ASD CICLISTICA SANSEPOLCRO 05:12:48.91 25,51 05:11:19.31
502 SISTI NICOLA M M4 99 ASD GCM MIGLIARINO 05:12:58.13 25,50 05:12:18.18
503 BAGLIONI GIOVANNA F MW2 11 ASD GCM MIGLIARINO 05:12:58.24 25,50 05:12:17.17
504 BELLI LEONARDO M M4 100 CICLISTICA GREVIGIANA 05:13:08.24 25,48 05:12:27.27
505 MAGI DANIELE M M7 28 ASD CICLISMO MONTECCHIO 05:13:34.00 25,45 05:12:03.03
506 TONTI MICHELE M M3 80 ASD CICLISMO MONTECCHIO 05:13:34.25 25,45 05:12:02.05
507 PALADIN STEFANO M M5 99 IL TEAM PINARELLO 05:13:38.66 25,44 05:08:49.49
508 BENASSI ANDREA M M5 100 CROCE VERDE BIKE VIAREGGIO 05:13:51.90 25,43 05:08:14.80
509 ALBANO CARLO M M4 101 CROCE VERDE BIKE VIAREGGIO 05:13:51.90 25,43 05:08:14.80
510 MORINI STEFANO M M5 101 TEAM PASSION FAENTINA 05:14:17.39 25,39 05:13:26.26
511 MASSEI GIANFRANCO M M7 29 ASD TORMATIC PEDALE SETTEMPEDANO 05:14:19.50 25,39 05:09:39.20
512 CINGOLANI ENRICO M M7 30 CASSINIS CYCLING TEAM 05:14:20.84 25,39 05:12:50.64
513 BECCHETTI DAVIDE M M3 81 GRUPPO NULLI ISEO MTB ASD 05:14:25.66 25,38 05:12:10.10
514 NOLLI MAURIZIO M M3 82 ASD PERSICHELLO CREMONA 05:14:26.52 25,38 05:12:41.41
515 GIACOBBI STEFANO M M3 83 CICLISTICA VALDARBIA 05:14:38.25 25,36 05:10:40.40
516 DE LILLO ALFREDO M M4 102 AS CIVITAS ATRIPALDA 05:14:43.76 25,36 05:13:08.08
517 VAZZOLER LORIS FRANCESCO M M5 102 ASD SAGITTA BIKE 05:15:01.40 25,33 05:14:30.30
518 CARNEVALI GIUSEPPE M M5 103 GS MUGELLO TOSCANA BIKE 05:16:04.26 25,25 05:12:47.47
519 GARBUIO ADRIANO M M5 104 A.S.D SANT´ANNA TEAM 05:16:05.69 25,25 05:11:24.49
520 MARTIGNAGO FLAVIO M M4 103 A.S.D SANT´ANNA TEAM 05:16:06.11 25,25 05:11:28.01
521 DAANEN WOUTER M M6 68 INDIVIDUALE 05:16:40.49 25,20 05:12:06.06
522 DAANEN BRENDA F MW2 12 INDIVIDUALE 05:16:41.49 25,20 05:12:07.07
523 SILVESTRI DIEGO M M4 104 ASD TEAM C & P 05:17:14.03 25,15 05:15:48.48
524 SCHIAVINATO FLORIO M M8 4 ASD GC SANTA CRISTINA 05:17:14.84 25,15 05:15:14.14
525 SEVERINO ANDREA M M2 53 GC SETTECOLLI FILOTTRANO 05:17:15.25 25,15 05:13:35.35
526 RUZZA MAURO M M6 69 ASD CICLO DELTA 2.0 05:17:15.43 25,15 05:15:58.23
527 GILBERTI ANDREA M M4 105 ASD GIO´ N´DENT - TEAM ENERVIT 05:17:18.25 25,15 05:15:02.02
528 RAMPI ALBERTO M M5 105 ASD GIO´ N´DENT - TEAM ENERVIT 05:17:18.50 25,15 05:15:03.03
529 CASALI ANGELO M M7 31 US SPINESE ORATORIO 05:17:22.35 25,14 05:16:45.45
530 PATRIGNANI PAOLO M M7 32 SC PEDALE RAVENNATE 05:17:56.90 25,10 05:16:53.40
531 ORLANDO PAOLO M M5 106 GS CICLI PETTA 05:18:24.90 25,06 05:17:24.20
532 TOMA MASSIMO M M4 106 RACE TOOL - CYCLING TEAM 05:18:41.64 25,04 05:16:20.54
533 AIANI PAOLO M M4 107 ADS TEAM DUAL BIKE CANTU´ 05:18:49.15 25,03 05:14:09.09
534 LIBANORE ANDREA MARIO GIOVANNI M M5 107 RASCHIANI TRIATHLON PAVESE 05:19:18.99 24,99 05:16:49.09
535 CARRARA VALTER MASSIMO M M5 108 VELOCLUB SELVINO 05:19:20.16 24,99 05:15:56.56
536 GRIFONI DANIELE M M5 109 ACD BICISPORTEAM FIRENZE 05:19:21.16 24,99 05:15:06.06
537 BINI SIMONE M M5 110 ACD BICISPORTEAM FIRENZE 05:19:21.60 24,99 05:15:07.07
538 GORI DANIELE M M6 70 ACD BICISPORTEAM FIRENZE 05:19:22.25 24,99 05:15:06.05
539 VACCARO GIULIO M M2 54 ASD BICIPEDIA 05:19:35.40 24,97 05:17:15.30
540 IZZO FABRIZIO M M4 108 VELOCLUB PONTEDERA 05:19:41.66 24,96 05:18:14.46
541 TAMBORINI LUIGI M M2 55 SULZ DULZ 05:19:59.32 24,94 05:18:23.23
542 BASSI MARIO M M5 111 VELOPLUS MAKAKO TEAM 05:20:00.24 24,94 05:18:23.14
543 PIERGIOVANNI LUCA M M5 112 ASD CICLISMO MONTECCHIO 05:20:13.15 24,92 05:17:30.30
544 MONTI ANDREA M M4 109 GIANLUCA FAENZA TEAM 05:20:21.25 24,91 05:19:05.05
545 SIMEONI RITA F MW1 5 ASD POLISPORTIVA TECNOIMPIANTI 05:20:21.75 24,91 05:19:10.15
546 BARON DONATELLA F MW2 13 ASD ENERGIA 05:20:22.15 24,91 05:19:12.12
547 TRIVISONNO GIANLUCA M M4 110 SARACENO CYCLING TEAM 05:20:26.66 24,90 05:15:43.46
548 BINI GIACOMO M M3 84 GS MUGELLO TOSCANA BIKE 05:20:37.04 24,89 05:17:48.48
549 BIONDO MARCO M M4 111 ASD GS OLANG - JOLLY 05:21:26.41 24,83 05:16:39.39
550 NISTRI ROBERTO M M6 71 GS POCCIANTI 05:21:29.77 24,82 05:19:25.07
551 PASQUALETTI ENRICO M M5 113 GS POCCIANTI 05:21:35.24 24,81 05:19:21.21
552 VANHOOF KURT M M3 85 INDIVIDUALE 05:21:56.53 24,79 05:20:41.43
553 LANZA ANDREA M M3 86 CICLISTICA MOLASSANA 05:21:57.25 24,79 05:20:22.22
554 WAGNER MASSIMO M M3 87 CICLISTICA MOLASSANA 05:21:57.35 24,79 05:20:22.22
555 FALCONI SERENA F MW1 6 ASD RUBICONE CYCLING 05:22:19.25 24,76 05:20:23.15
556 RAVAGLI GIOVANNI M M6 72 ASD RUBICONE CYCLING 05:22:19.65 24,76 05:20:26.55
557 FALSINI STEFANIA F MW2 14 GS TERRALBA 05:22:22.49 24,75 05:20:16.16
558 MURER ELIO M M7 33 UC PAESE 05:22:24.24 24,75 05:20:04.04
559 PASTORE VINCENZO M M4 112 ASD TORRETTA BIANCA 05:22:38.65 24,73 05:19:04.15
560 BELLIZIA ROBERTO M M5 114 ASD GRIFO BIKE PERUGIA 05:22:38.65 24,73 05:19:03.35
561 DE LUCA FRANCESCO M M5 115 ASD GRIFO BIKE PERUGIA 05:22:39.00 24,73 05:19:06.06
562 PAOLILLO MATTEO M M4 113 ASD TORRETTA BIANCA 05:22:39.37 24,73 05:19:00.00
563 DE ANGELIS DARIO M M1 44 ASD RUBICONE CYCLING 05:22:45.24 24,73 05:20:48.04
564 PULITI EMANUELE M M2 56 IL MONTE ASD 05:22:50.65 24,72 05:19:43.25
565 VARVAZZO PIERPAOLO M M4 114 CICLISTICA SANNICOLESE 05:23:55.50 24,64 05:21:49.49
566 GRANDI MAURO M M6 73 ASD FIMAP MR GUD 05:24:59.26 24,56 05:22:55.55
567 GRAZIA SERGIO M M2 57 TEAM FERRARA BIKE 05:25:05.75 24,55 05:20:03.03
568 BAZZINI ANDREA M M4 115 VIVO ASD 05:25:10.82 24,54 05:19:45.72
569 PESCI MIRKO M M4 116 ASD TEAM HORS CATEGORY 05:25:13.39 24,54 05:19:54.54
570 SABINI LORENZA F MW1 7 ASD TEAM HORS CATEGORY 05:25:13.39 24,54 05:19:48.29
571 QUAGLIERI IVO M M7 34 ASD ROMA CICLISMO 05:25:24.41 24,52 05:24:01.21
572 GUASTI SANDRO M M5 116 ASD SLOWTEAM 05:25:41.64 24,50 05:21:33.24
573 MEONI FABIO M M5 117 ASD SLOWTEAM 05:25:42.91 24,50 05:21:32.21
574 VANNI GABRIELE M M5 118 ASD SLOWTEAM 05:25:43.06 24,50 05:21:34.34
575 CIAMPI ALBERTO M M4 117 ASD SLOWTEAM 05:25:43.50 24,50 05:21:34.30
576 BOCCHINI ANDREA M M6 74 ASD GRIFO BIKE PERUGIA 05:26:25.85 24,45 05:22:59.65
577 GRELLI FRANCESCO M M3 88 ASD GRIFO BIKE PERUGIA 05:26:26.66 24,45 05:23:00.06
578 BASTIANELLI PAOLO M M4 118 ASD GRIFO BIKE PERUGIA 05:26:27.16 24,44 05:23:02.02
579 MECI STEFANO M M3 89 ASD TOSCO-ROMAGNOLA 05:26:33.65 24,44 05:22:29.45
580 ALBONI ANDREA M M5 119 ASDC GRANAROLO FAENTINO 05:26:37.49 24,43 05:23:34.34
581 BIGNAMI ENEA M M2 58 TEAM FERRARA BIKE 05:26:48.74 24,42 05:21:46.54
582 GIANFRIDDO PIETRO M M5 120 ASD CICLI SPANO-SIPONTINO 05:27:08.66 24,39 05:25:14.06
583 POLIMANTI MASSIMILIANO M M4 119 ASD GRIFO BIKE PERUGIA 05:28:06.41 24,32 05:25:34.21
584 CIPICIANI ANDREA M M3 90 ASD GRIFO BIKE PERUGIA 05:28:08.66 24,32 05:25:33.33
585 PARRINELLO PIETRO MASSIMO M M4 120 BICITIME RACING TEAM 05:28:33.82 24,29 05:25:54.62
586 SCARPONI FILIPPO M M5 121 ASD TESTI CICLI 05:28:39.33 24,28 05:23:33.33
587 MARANI MARCO M M5 122 PONTESANTO CESI APD 05:29:09.31 24,24 05:28:01.21
588 PRIMERANO CARLO M M6 75 RUN AND BIKE 05:29:21.07 24,23 05:26:36.36
589 LIZZA PAOLO M M6 76 MYG CYCLING TEAM 05:29:39.90 24,21 05:27:34.00
590 VINOTTI ALDO M M8 5 MYG CYCLING TEAM 05:29:43.38 24,20 05:27:38.38
591 DRAGO GIAMPAOLO M M5 123 ASD GC ATLETICO 05:30:05.89 24,18 05:29:15.49
592 BALDI VIRGILIO M M5 124 ASD CICLISTICA PIOVESE 05:30:05.99 24,18 05:28:29.79
593 REGGI NICOLA M M2 59 INDIVIDUALE 05:30:13.60 24,17 05:25:52.60
594 BIANCHI MARCO M M6 77 GC VAL DI MERSE 05:30:32.88 24,14 05:26:32.18
595 BORRONI CRISTIAN M M4 121 BICI PLANET TEAM ASD 05:30:48.15 24,12 05:27:03.05
596 GIORGI GIOVANNI M M6 78 IL TEAM PINARELLO 05:31:58.24 24,04 05:30:28.04
597 FIORINI MAURIZIO M M6 79 IL TEAM PINARELLO 05:31:58.49 24,04 05:30:25.25
598 MOSCATIELLO LUCA M M5 125 GIANLUCA FAENZA TEAM 05:31:59.91 24,04 05:30:11.01
599 AMERIO GIORGIO M M5 126 MTB SENSA FREN ASTI 05:32:30.49 24,00 05:31:16.16
600 GIOVARA GUIDO M M6 80 MTB SENSA FREN ASTI 05:32:30.99 24,00 05:31:16.29
601 COGO STEFANIA F MW1 8 RASCHIANI TRIATHLON PAVESE 05:33:27.49 23,93 05:28:26.26
602 TAVANI FABIO M M6 81 GS CICLOCODOGNO 94 05:33:30.31 23,93 05:31:34.34
603 LANZONI STEFANO M M5 127 ASD SACMI 05:34:17.24 23,87 05:33:09.14
604 REVELLI ANDREA M M7 35 TEAM BICITALY ASD 05:35:07.66 23,81 05:29:54.54
605 PEDRON ANTONIO GIANNI M M5 128 IL TEAM PINARELLO 05:35:26.16 23,79 05:32:23.23
606 GABRIELLI SANDRO M M6 82 IL TEAM PINARELLO 05:35:27.99 23,79 05:33:54.89
607 GOLINELLI GIANPIERO M M7 36 GS SPORTISSIMO TOP LEVEL 05:35:56.66 23,75 05:32:43.43
608 RAYMAEKERS JACKY M M4 122 INDIVIDUALE 05:36:49.46 23,69 05:31:27.27
609 DE CARLO SALVATORE M M6 83 INDIVIDUALE 05:37:01.63 23,68 05:34:33.53
610 ZUCCO SILVIO M M7 37 IL TEAM PINARELLO 05:37:29.42 23,65 05:35:25.25
611 ARNEODO MARIA ANTONIETTA F MW2 15 TINKY LADIES PINARELLO 05:37:29.56 23,65 05:35:25.16
612 RUSTICALI ANGELA F MW2 16 CICLISTICA MERCATESE 05:38:12.16 23,60 05:37:10.10
613 CAMAGNI RENZO M M6 84 CICLISTICA MERCATESE 05:38:12.41 23,60 05:37:09.09
614 GUERRI FABIO M M5 129 ASD VVF - VELO VALFONTANABUONA 05:38:18.29 23,59 05:35:29.29
615 BOESSER STEPHAN M M4 123 INDIVIDUALE 05:38:29.24 23,58 05:35:10.10
616 ZUCCHINI ALBERTO M M3 91 POLISPORTIVA ZOLA ASD 05:38:52.16 23,55 05:34:52.52
617 PIERANTONI GABRIELE M M2 60 ASD CICLI GAMBA 05:38:54.39 23,55 05:34:52.52
618 FOGA´ VINCENZO M M3 92 INDIVIDUALE 05:39:41.85 23,49 05:36:34.65
619 MALTONI GUIDO M M8 6 POLISPORTIVA SAN VITTORE - ALFIO TANI 05:40:10.16 23,46 05:39:00.00
620 MARCON MARIA ANGELA F MW2 17 ASD GC SANTA CRISTINA 05:40:37.40 23,43 05:38:24.30
621 COLOSCHI AMELIO M M7 38 ASD GC SANTA CRISTINA 05:40:37.40 23,43 05:38:25.20
622 MCATEER GERRARD M M3 93 ASD VC FLORENCE BY BIKE 05:41:00.66 23,40 05:35:41.41
623 ROVERATO GIORGIA F MW2 18 ASD CICLISTICA PIOVESE 05:41:15.65 23,38 05:39:43.35
624 CORTI GIANPAOLO M M6 85 CICLISTICA ERBESE 05:43:16.91 23,25 05:41:59.51
625 MALINVERNO ROBERTO M M6 86 CICLISTICA ERBESE 05:43:17.62 23,25 05:42:00.42
626 BASTIDA ALESSANDRO M M4 124 ACD BICISPORTEAM FIRENZE 05:43:40.99 23,22 05:39:24.29
627 FONTINI ILARIA F MW2 19 ACD BICISPORTEAM FIRENZE 05:43:41.73 23,22 05:39:23.43
628 MOSTI DARIO M M3 94 TEAM CICLO 94 05:44:13.54 23,18 05:38:34.44
629 SCARINZI STEFANO M M1 45 HUTR ASD 05:44:14.31 23,18 05:38:35.35
630 NONNI GIOVANNI M M7 39 SC PEDALE RAVENNATE 05:44:23.24 23,17 05:42:36.36
631 RAGUSA SEBASTIANO M M4 125 ASD REVOLUTION BIKE 05:44:50.51 23,14 05:42:53.11
632 CIORIA FABIO M M1 46 INTEGRA TEAM ASD DIS E ABILI 05:45:10.60 23,12 05:42:00.60
633 CALVANELLI ROBERTO M M5 130 MT BIKE TEAM 2001 05:46:04.53 23,06 05:44:54.54
634 MASCIA MASSIMO M M4 126 ASD ROMA CICLISMO 05:46:11.24 23,05 05:40:30.30
635 VENERE CARMINE M M3 95 ASD ROMA CICLISMO 05:46:11.66 23,05 05:40:29.56
636 BONOLLO ROMEO M M6 87 GS ALPILATTE B.R.PNEUM.ZANE´ 05:46:15.00 23,05 05:44:04.04
637 MIOLO ANDREA M M4 127 GC COLLI BERICI 05:47:24.15 22,97 05:43:48.48
638 SCHILLANI LIONELLO M M5 131 SC GENTLEMEN TRIESTE 05:47:29.66 22,97 05:43:50.50
639 COMPAGNIN RENZO M M8 7 GS PRASECCOBIESSE 05:47:47.55 22,95 05:46:11.11
640 MAGRO NICOLETTA F MW2 20 GS PRASECCOBIESSE 05:47:47.99 22,95 05:46:10.49
641 ZIRONI STEFANO M M5 132 GS SPORTISSIMO TOP LEVEL 05:48:03.74 22,93 05:43:19.04
642 STOPAZZINI FABRIZIO M M5 133 GS SPORTISSIMO TOP LEVEL 05:48:04.74 22,93 05:43:20.04
643 BETTELLI MARCO M M5 134 GS SPORTISSIMO TOP LEVEL 05:48:04.99 22,93 05:43:20.29
644 GOVONI DANIELE M M4 128 GS AVIS CASTELMAGGIORE STONED AGAIN 05:48:08.24 22,92 05:47:27.27
645 MASSARI ROBERTO M M4 129 ASD AVIS MARCON 05:48:24.87 22,90 05:44:48.67
646 DAVIES WILLIAM M M5 135 INDIVIDUALE 05:49:16.24 22,85 05:44:53.14
647 TIGNONE PAOLO M M6 88 GS PEDALE BOLOGNESE 05:49:58.76 22,80 05:48:10.36
648 GIOTTI EMILIANO M M2 61 ACD BICISPORTEAM FIRENZE 05:50:48.40 22,75 05:46:15.30
649 GRANDO FEDERICA F MW2 21 A.S.D SANT´ANNA TEAM 05:51:27.25 22,71 05:49:35.35
650 BATTAGLIA FABIO M M3 96 ASD TEAM NEW GREEN 05:51:27.75 22,71 05:49:34.65
651 ANDREONI LUIGI GIUSEPPE M M8 8 ASD CICLISMO MONTECCHIO 05:52:58.40 22,61 05:52:11.00
652 BERGAMI MASSIMO M M6 89 AVIS FAENZA 05:53:35.00 22,57 05:52:23.23
653 DI STEFANO LUIGI M M7 40 CICLO CLUB PASSO CORESE 05:53:35.00 22,57 05:52:21.21
654 BONAZZI PAOLO M M4 130 GS SPORTISSIMO TOP LEVEL 05:54:17.13 22,52 05:51:34.34
655 ABBONDANZA CLAUDIO M M7 41 CICLI MATTEONI - BIANCHI 05:56:05.74 22,41 05:54:26.34
656 TASSINARI MANOLA F MW2 22 CICLI MATTEONI - BIANCHI 05:56:05.83 22,41 05:54:26.26
657 VAN WEEGHEL STEF M M6 90 INDIVIDUALE 05:57:15.16 22,34 05:52:43.43
658 MARTINELLI NADIR M M7 42 AS PEDALE VERBANESE DELTA 05:57:42.65 22,31 05:55:34.34
659 LUCCI ERMANNO M M4 131 ASD CLUB CICLI MALINI 05:58:11.37 22,28 05:53:14.14
660 DI GIORGIO VIVIANA F MW2 23 INDIVIDUALE 05:58:22.11 22,27 05:54:52.01
661 SILVESTRINI AGOSTINO M M5 136 INDIVIDUALE 05:58:22.28 22,27 05:54:53.53
662 QUARESIMALI ROMANO M M5 137 ASINELLI POLISPORTIVA DILETTANTISTICA 05:58:22.57 22,27 05:57:23.23
663 LUISE FABRIZIO M M8 9 GC AQUILE FONTANE 05:59:07.90 22,22 05:53:37.50
664 MAZZOCATO VINCENZO M M7 43 IL TEAM PINARELLO 06:00:12.41 22,15 05:58:55.55
665 BISOL CARLO M M6 91 IL TEAM PINARELLO 06:00:12.66 22,15 05:58:55.46
666 CICCARELLI GIANNI M M1 47 DUE RUOTE CITTA´ DI AREZZO 06:00:12.84 22,15 05:57:49.04
667 MATELLICANI ANDREA M M5 138 GEMINI TEAM ASD 06:01:45.54 22,06 05:59:54.54
668 CHIOLA MARIO M M8 10 SC PEDONA CICLI ARGIRO´ 06:02:27.11 22,02 06:00:20.20
669 FOSCHINI GIORGIO M M7 44 AVIS FAENZA 06:03:12.13 21,97 06:01:44.44
670 SOMMA COSTANTINO M M5 139 ASD GREEN DEVILS 06:03:36.49 21,95 06:00:30.30
671 GIANNOTTI PAOLO M M6 92 INDIVIDUALE 06:03:41.74 21,94 06:00:08.34
672 MALAGOLA FRANCESCO FELICE M M4 132 LA BORRA ASD 06:04:49.88 21,87 06:03:23.48
673 DELCROIX LUCA M M6 93 ACD BICISPORTEAM FIRENZE 06:05:51.33 21,81 06:03:50.50
674 FERNANDEZ ANTONIOJACOPO M M4 133 ASC CICLI PARRA 06:07:05.74 21,74 06:05:39.34
675 PASQUINI MARCO M M4 134 ASD VC FLORENCE BY BIKE 06:07:28.65 21,72 06:04:43.25
676 DE MARIANO CARMELO M M8 11 GS SPORTISSIMO TOP LEVEL 06:07:29.10 21,72 06:05:19.19
677 BARIANI MARIANGELA F MW2 24 GS PRESSIX - P3 - MITO SPORT 06:07:33.34 21,71 06:06:04.04
678 PROSPERI SILVANO M M7 45 ASD BICIPEDIA 06:08:12.08 21,67 06:07:39.39
679 VALERIO GIORGIO M M5 140 ASD DOLOMITI PSG 06:08:14.65 21,67 06:04:36.05
680 DIAMANTI DANIELE M M6 94 ASD FORUM RAVENNA 06:12:46.06 21,41 06:10:57.57
681 BRIGHI MAURO M M6 95 ASD FORUM RAVENNA 06:12:46.48 21,41 06:10:54.08
682 IANNONE MARCO M M5 141 ASD FORUM RAVENNA 06:12:46.98 21,41 06:10:51.58
683 TARONI MAURIZIO M M7 46 ASD FORUM RAVENNA 06:12:47.23 21,41 06:10:50.03
684 FARINI ANTONIO M M6 96 ASD FORUM RAVENNA 06:12:47.25 21,41 06:10:57.05
685 GODOLI SIMONE M M5 142 ASD FORUM RAVENNA 06:12:47.25 21,41 06:10:49.49
686 BALLERIN ANTONIO M M4 135 ASD FORUM RAVENNA 06:12:47.49 21,41 06:10:47.09
687 MATTEUCCI MAURIZIO M M7 47 ASD FORUM RAVENNA 06:12:48.49 21,41 06:10:48.48
688 TORTOLATO SANDRO M M6 97 ASD CICLISTICA PIOVESE 06:13:45.98 21,35 06:12:11.38
689 D´ANGELO GAETANO M M8 12 GS PUNTO CICLO PADOVA 06:15:14.65 21,27 06:14:38.25
690 BRUNAZZO MAURO M M6 98 TEAM CYCLO 06:17:17.39 21,15 06:11:38.09
691 CORSO ALICE F MW1 9 SSD PEDALE FELTRINO 06:17:44.22 21,13 06:14:03.02
692 DE BONI CRISTIANO M M4 136 SSD PEDALE FELTRINO 06:17:44.63 21,13 06:14:06.03
693 ZANELLA STEFANO M M5 143 SSD PEDALE FELTRINO 06:17:45.80 21,13 06:14:04.60
694 LANDI MAURO M M7 48 SSD PEDALE FELTRINO 06:17:46.48 21,12 06:14:05.05
695 TUFFANELLI ROBERTO M M5 144 SSD PEDALE FELTRINO 06:17:46.84 21,12 06:14:02.44
696 SERAFINI STEFANO M M5 145 IL TEAM PINARELLO 06:17:47.98 21,12 06:12:55.88
697 ZACCARINI MASSIMILIANO M M3 97 ASD TOSCO-ROMAGNOLA 06:20:45.39 20,96 06:19:00.00
698 TRONCONI BRUNO M M6 99 ASD TOSCO-ROMAGNOLA 06:20:46.24 20,96 06:17:46.46
699 ALPI FABRIZIO M M4 137 ASD TOSCO-ROMAGNOLA 06:20:46.90 20,96 06:19:01.80
700 ZIRONI STEFANO M M3 98 AVIS FORMIGINE UISP 06:21:38.24 20,91 06:20:37.37
701 ABBIATI STEFANIA F MW2 25 INDIVIDUALE 06:23:55.51 20,79 06:19:26.26
702 CROSTA SILVANO M M5 146 INDIVIDUALE 06:23:55.65 20,79 06:19:27.27
703 GHETTI ANTONIA F MW2 26 POLISPORTIVA LAVEZZOLESE 06:24:00.78 20,78 06:22:37.58
704 SCARDOVI FRANCO M M4 138 POLISPORTIVA LAVEZZOLESE 06:24:47.14 20,74 06:21:00.00
705 CENDON FERDINANDO M M6 100 IL TEAM PINARELLO 06:27:47.11 20,58 06:21:22.22
706 CAMATA GIUSEPPE M M6 101 IL TEAM PINARELLO 06:27:47.48 20,58 06:24:56.56
707 DALFOVO LUCA M M6 102 IL TEAM PINARELLO 06:27:47.73 20,58 06:24:55.53
708 LAMBERTINI LUCA M M4 139 SC COMUNITA´ NUOVA ALTEDO 06:28:27.73 20,54 06:27:33.33
709 MORETTI FRANCESCO M M3 99 GS SPORTISSIMO TOP LEVEL 06:28:27.73 20,54 06:27:37.63
710 COFFEY VELIA F MW2 27 INDIVIDUALE 06:29:42.48 20,48 06:29:01.01
711 PIERRO ANTONIO M M5 147 ASD LATINA CICLO AMATORI 06:32:54.90 20,31 06:29:00.50
712 GALLOZZI ALBERTO M M6 103 ASD LATINA CICLO AMATORI 06:32:56.14 20,31 06:29:02.02
713 BOVIERI FLAVIO M M6 104 ASD LATINA CICLO AMATORI 06:32:57.59 20,31 06:29:06.19
714 DI BARI ANDREA M M5 148 ASD LATINA CICLO AMATORI 06:32:59.98 20,31 06:32:59.98
715 MERRITT JONATHAN M M8 13 INDIVIDUALE 06:38:27.74 20,03 06:36:57.57
716 ROSATI GIANCARLO M M5 149 GS CICLI OLYMPIA 06:40:28.01 19,93 06:39:38.38
717 GIACHERO MARCO M M6 105 A.S.D. POLISPORTIVA CEDAS LANCIA 06:42:18.13 19,84 06:41:06.03
718 PIVA LORETTA F MW2 28 CICLI MATTEONI - BIANCHI 06:42:48.90 19,81 06:40:47.80
719 BALDUCCI GIORGIO M M6 106 CICLI MATTEONI - BIANCHI 06:42:49.90 19,81 06:40:47.70
720 ALBERTAZZI FABIO M M6 107 GS SPORTISSIMO TOP LEVEL 06:47:36.23 19,58 06:46:00.00
721 PRETI ALICE F MW2 29 GS SPORTISSIMO TOP LEVEL 06:47:36.48 19,58 06:45:58.58
722 URBAN CRISTIANO M M5 150 GS PRESSIX - P3 - MITO SPORT 06:51:58.89 19,37 06:51:16.16
DNF CASELLI RICCARDO M M5 - POLISPORTIVA OLTRARNO - - -
DNF COSTARELLI SIMONE M ELMT - ASD MC CYCLING TIME - - -
DNF CROCETTA GIANMARCO M ELMT - ASD GFDD ALTOPACK - - -
DNF FERRI MAURIZIO M M6 - CICLISTICA GREVIGIANA - - -
DNF MARCHESINI ARIANNA F MW1 - TEAM BORGHI RACING - - -
DNF MARINI MIRKO M M1 - ASD CICLOSPORT POGGIBONSI - - -
DNF MCCORD SCOTT M M1 - INDIVIDUALE - - -
DNF PUGLIOLI MIRKO M M3 - INBICI CYCLING TEAM - - -

CORTO - 86.0 Km VISUALIZZAZIONE ESTESA

Pos Atleta Sesso Cat PosC Team Tempo Media RTime
Sq. CODE CHIP WT1982 - M NC - - 06:44:12.31 12,77 06:44:12.31
Sq. LEONI FABIO M NC - - 03:31:34.42 24,39 03:26:42.02
Sq. PEDRONI ALESSANDRO M M7 - ADSCOST 00:57:40.25 89,48 00:51:30.30
1 DA CASTAGNORI MARCO M M1 1 GENETIK CYCLING TEAM 02:18:11.64 37,34 02:18:03.03
2 PIZZI IURI M M3 1 TEAM STEFAN ASD 02:18:16.52 37,32 02:18:02.02
3 LANZILLO SIMONE M M3 2 DI GIOIA CYCLING 02:18:33.02 37,24 02:18:15.15
4 DEI GIACOMO M M1 2 GS SPORTISSIMO TOP LEVEL 02:18:35.36 37,23 02:18:19.19
5 RODA CRISTIAN M M3 3 ASD BICICULT 02:18:35.43 37,23 02:18:18.03
6 NATALI LORENZO M ELMT 1 ASD I CAVALIERI 02:18:36.18 37,23 02:18:22.22
7 PINZI EDOARDO M ELMT 2 MONTALLESE ASD 02:18:49.15 37,17 02:18:27.27
8 GERI SIMONE M M3 4 TEAM CHIANTI BIKE ASD GIANT 02:18:53.52 37,15 02:18:34.34
9 MAZZONI MARCO M M4 1 VITAMIN CYCLING TEAM ASD 02:18:53.85 37,15 02:18:34.75
10 SCHIARATURA DAVIDE M M1 3 ASD TOSCO-ROMAGNOLA 02:18:56.02 37,14 02:18:29.29
11 PARENTE SIMONA F MW2 1 TEAM ISOLMANT 02:18:57.06 37,14 02:18:46.46
12 GORIETTI MARCO M M5 1 UC PETRIGNANO 02:18:57.88 37,14 02:18:37.37
13 ROGGI MATTEO M M3 5 ACD BICISPORTEAM FIRENZE 02:18:58.94 37,13 02:18:49.84
14 ZUGARINI SIMONE M M2 1 ASD CICLISTICA SENESE 02:20:48.18 36,65 02:20:40.08
15 GENTILI PAOLO M ELMT 3 ASD TEAM VALLONE 02:20:50.77 36,64 02:19:54.54
16 FRANCESCHI GIACOMO M M2 2 GS RAMINI 02:21:04.03 36,58 02:20:40.40
17 KRISTENSEN LENNIE M M4 2 INDIVIDUALE 02:21:08.53 36,56 02:20:18.18
18 BIANCHI MARCO M M5 2 VELOCLUB VIGORELLI ASD 02:21:09.27 36,56 02:20:52.52
19 GALLO LUCA M M3 6 ASD TEAM FAUSTO COPPI FERMIGNANO 02:21:10.27 36,55 02:21:02.07
20 ELBAEK CHRISTIAN TRUELSEN M JMT 1 INDIVIDUALE 02:21:39.52 36,43 02:20:49.12
21 ROSI LEONARDO M M1 4 ASD MC CYCLING TIME 02:23:50.02 35,87 02:23:31.31
22 CIACCI ANDREA M M3 7 ASD CICLISTICA SENESE 02:23:51.12 35,87 02:23:35.02
23 LENTINI GAETANO M ELMT 4 ASD CICLO DELTA 2.0 02:23:54.93 35,86 02:23:41.23
24 SEGOLINI FRANCESCO M M6 1 ASD VELO CLUB RACING ASSISI BASTIA 02:23:55.79 35,85 02:23:36.19
25 ALBERI FABIO M M6 2 ASD CICLISTICA SENESE 02:23:56.18 35,85 02:23:40.40
26 GRANI GABRIELE M M3 8 VITAMIN CYCLING TEAM ASD 02:23:57.63 35,85 02:23:24.23
27 ROSSI GIULIO M M4 3 ASD GFDD ALTOPACK 02:23:57.77 35,85 02:23:20.20
28 MAGNANI VALERIO M M7 1 ASD SC LA RODA REDA 02:23:58.22 35,84 02:23:41.41
29 KAAL JOS M M4 4 INDIVIDUALE 02:23:59.42 35,84 02:23:01.01
30 PASTACALDI MARCO M ELMT 5 GC CAMPI 04 02:24:00.66 35,83 02:22:42.56
31 POTRISI STEFANO M M4 5 VITAMIN CYCLING TEAM ASD 02:24:05.12 35,81 02:23:53.53
32 MARTINI MARCO M M5 3 VITAMIN CYCLING TEAM ASD 02:24:07.68 35,80 02:23:50.50
33 CARPINETI EDDY M M2 3 TEAM PASSION FAENTINA 02:24:07.77 35,80 02:23:58.58
34 SECCI FRANCESCO M M2 4 UC MARCIALLA 02:24:17.52 35,76 02:24:05.05
35 FAGGI FRANCESCO M M2 5 ASD CICLI COPPARO - LIOTTO 02:24:19.72 35,75 02:22:55.55
36 CORTI GABRIELE M M4 6 GS MUGELLO TOSCANA BIKE 02:24:22.93 35,74 02:24:04.03
37 PALUMBO ALEXANDER M M1 5 TEAM BIKE RACING 02:24:29.25 35,71 02:24:29.25
38 ZANNELLI MATTEO M M1 6 ASD TEAM PRIVÉE 02:24:34.32 35,69 02:24:25.25
39 MC LOUGHLIN JAMES M M5 4 TEAM PROCYCLING PROMOTECH 02:25:11.51 35,54 02:23:10.10
40 BELLANDI GIOVANNI M M6 3 TEAM STEFAN ASD 02:26:27.51 35,23 02:23:33.41
41 BIGIARINI ALBERTO M M6 4 BIKELAND TEAM BIKE 2003 02:26:29.42 35,23 02:24:00.32
42 CAPEZZUOLI FILIPPO M M1 7 GS MUGELLO TOSCANA BIKE 02:26:31.27 35,22 02:24:27.27
43 DOMMI SANDRO M M2 6 ASD MC CYCLING TIME 02:26:32.27 35,21 02:23:05.05
44 GUIDOTTI ALESSANDRO M M1 8 ASD TEAM INVERCOLOR 02:26:34.38 35,21 02:23:27.18
45 ACONE UBALDO M M4 7 ASD MAGLIFICIO SL2 - CORBISIERO BIKE 02:26:37.51 35,19 02:24:30.30
46 PAPINI LORENZO M M3 9 GS CICLI GAUDENZI 02:26:38.43 35,19 02:23:33.33
47 PIZZUTILO VITO M M3 10 TEAM GRANFONDO FIRENZE B-KING 02:26:39.26 35,19 02:24:48.48
48 CALABRO STEFANO M M2 7 TEAM CHIANTI BIKE ASD GIANT 02:26:39.42 35,19 02:24:48.32
49 LUCHERINI ALESSANDRO M M1 9 ASD CICLISTICA SENESE 02:26:41.43 35,18 02:24:15.15
50 BANDIERI GIUSEPPE M M3 11 ASD DIAVOLI VELOCI 02:26:44.92 35,17 02:24:49.72
51 BOATTINI MARIO M M1 10 CROCE ROSSA ITALIANA LUCCA 02:26:45.36 35,16 02:23:39.16
52 STACCIOLI LUCA M M3 12 TEAM STEFAN ASD 02:26:46.27 35,16 02:26:33.33
53 GORINI MICHELA F MW2 2 ASD TEAM FAUSTO COPPI FERMIGNANO 02:26:46.44 35,16 02:26:39.04
54 MONTI MIRCO M M3 13 ASD MC CYCLING TIME 02:26:47.16 35,15 02:23:41.06
55 DESSI GIANLUCA M M4 8 ASD TEAM FAUSTO COPPI FERMIGNANO 02:26:47.94 35,15 02:26:38.74
56 STEFANACCI PAOLO M M2 8 GS MUGELLO TOSCANA BIKE 02:26:48.81 35,15 02:24:47.11
57 VENTURINI RICCARDO M M5 5 GS CICLI GAUDENZI 02:26:49.18 35,15 02:26:36.08
58 MANNINO CRAIG GIANNI M M4 9 ASD LA BAGARRE CICLISTICA LUCCHESE 02:26:49.59 35,15 02:24:28.28
59 FIRENZE MAURIZIO M M5 6 ASD BY BIKE 02:26:51.52 35,14 02:26:35.12
60 FONTANELLI ANNALISA F MW1 1 ASD CICLOSPORT POGGIBONSI 02:26:52.52 35,13 02:26:43.43
61 SCALORA FRANCESCO M M2 9 SBR3 EDILMARK 02:26:54.52 35,13 02:25:22.22
62 LOMBARDI SERGIO M M5 7 TEAM STEFAN ASD 02:26:58.11 35,11 02:24:04.04
63 FRASCARELLI ROBERTO M M5 8 ASD CICLOSPORT POGGIBONSI 02:27:06.19 35,08 02:26:46.46
64 GUERCINI MASSIMO M M4 10 UC PETRIGNANO 02:27:07.93 35,07 02:26:08.03
65 FELETIG SANDRO M M5 9 GRIP CASTELFIORENTINO 02:27:09.00 35,07 02:26:49.49
66 MANNELLI FABIANO M M4 11 ASD TEAM MTB PRATO 02:27:15.14 35,04 02:24:56.56
67 BELMONTE FRANCESCO M M4 12 MT BIKE TEAM 2001 02:27:15.52 35,04 02:25:00.12
68 PETRI ROBERTO M M4 13 GC TONDI SPORT 02:27:24.27 35,01 02:25:30.30
69 DEL BRAVO DARIO M M1 11 ASD GUMASIO 02:27:29.93 34,99 02:26:32.13
70 MARIANI GIACOMO M M3 14 TEAM BIKE RACING 02:27:31.56 34,98 02:27:10.10
71 MOROTTI MATTEO M M3 15 ASD TEAM MOROTTI 02:28:07.51 34,84 02:25:15.11
72 PASQUALI DAVIDE M M1 12 TEAM DE ROSA SANTINI 02:28:38.29 34,72 02:28:02.19
73 PIERGENTILI CLAUDIO M M4 14 MTB CLUB VITERBO 02:29:13.42 34,58 02:28:01.01
74 BORZI VINCENZO M M2 10 ASD TEAM INVERCOLOR 02:29:14.51 34,58 02:27:54.31
75 CHELLINI ALESSANDRO M M2 11 GS CICLI GAUDENZI 02:29:14.81 34,58 02:28:41.41
76 PASTACALDI TOMMASO M ELMT 6 GC CAMPI 04 02:29:16.18 34,57 02:27:58.58
77 TAUCCI GABRIELE M M3 16 ASD TEAM VALLONE 02:29:18.43 34,56 02:26:19.19
78 FONTIGI MATTEO M M3 17 TEAM PASSION FAENTINA 02:29:27.68 34,53 02:27:37.48
79 VERDIANI LUIGI M M2 12 UC MARCIALLA 02:29:28.58 34,52 02:29:08.08
80 BARTOLONI LUCA M M6 5 ASD CICLISTICA SENESE 02:29:30.61 34,52 02:29:12.12
81 CERBONI MARCO M M1 13 ASD VELO CLUB RACING ASSISI BASTIA 02:29:31.02 34,51 02:28:50.50
82 ROSSI LUCA M M5 10 ASD CICLISTICA SENESE 02:29:31.84 34,51 02:29:13.13
83 MANARESI BRUNO M M8 1 AVIS FAENZA 02:29:36.68 34,49 02:28:09.58
84 LAZZERELLI ANDREA M M4 15 BIKELAND TEAM BIKE 2003 02:29:38.27 34,48 02:29:12.12
85 ANGIOLONI LEONARDO M M4 16 GSC CASENTINESE 02:29:38.52 34,48 02:29:19.42
86 GATTI MIRKO M ELMT 7 GS MARINELLI 02:29:38.72 34,48 02:28:29.32
87 RICCOMI GIOVANNI M M4 17 ASD MARLIA BIKE E RUNNING 02:29:46.63 34,45 02:29:29.03
88 TURCHI CHIARA F MW2 3 CICLO TEAM SAN GINESE 02:29:53.26 34,43 02:29:46.46
89 MARCHIO´ GIULIO M M4 18 TEAM STEFAN ASD 02:29:55.76 34,42 02:29:38.56
90 BOCCONI DANIELE M M3 18 UC MARCIALLA 02:30:02.25 34,39 02:29:40.05
91 GIUFFRE´ ALESSIO M M1 14 CYKELN TEAM ASD 02:31:25.52 34,08 02:29:33.32
92 CIAMPI ROBERTO M M4 19 ASD LA BAGARRE CICLISTICA LUCCHESE 02:31:33.10 34,05 02:30:55.00
93 MARCHETTI GIANFRANCO M M3 19 ASD GFDD ALTOPACK 02:31:36.02 34,04 02:31:21.21
94 MARTINI LUCIANO M M5 11 TEAM STEFAN ASD 02:31:38.94 34,03 02:31:26.54
95 MARZI GIACOMO M M4 20 GC CAMPI 04 02:31:49.12 33,99 02:30:30.02
96 MESSINA ANTONIO M M7 2 ASD MC CYCLING TIME 02:31:55.52 33,97 02:31:19.19
97 FIORILLO GIUSEPPE M M4 21 VOYAGER BIKE CASTEL SAN GIORGIO ASD 02:32:11.18 33,91 02:30:44.44
98 CREATI ALESSANDRO M M1 15 GRIP CASTELFIORENTINO 02:32:43.68 33,79 02:29:08.28
99 RULLI GIANLUCA M M5 12 ASD GRIFO BIKE PERUGIA 02:32:44.52 33,78 02:29:27.32
100 ZAGANELLA IVANO M M6 6 GSC MOIANO 02:32:50.26 33,76 02:30:12.12
101 VIERI DUCCIO M M3 20 CICLISTICA VALDARBIA 02:33:04.02 33,71 02:29:52.52
102 RODRIGUES ELDUYS M M3 21 HIMOD BIKE 4ELEMENTS-IL BRACIERE ASD 02:33:07.42 33,70 02:30:37.37
103 VIOLA MASSIMILIANO M M5 13 ASD CICLISTICA SENESE 02:33:07.94 33,70 02:32:50.74
104 BORGHETTI PIETRO M M3 22 GS MUGELLO TOSCANA BIKE 02:33:08.01 33,70 02:29:53.53
105 FANI FILIPPO M M3 23 AVIS PRATOVECCHIO-ERREPI-LEE COUGAN 02:33:08.62 33,70 02:29:56.22
106 SCHIAVON ALESSANDRO M M3 24 ASD CROCETTA BIKE TEAM 02:33:09.04 33,69 02:31:16.16
107 BERTI PAOLO M M2 13 MTB VALDICHIANA 02:33:09.04 33,69 02:32:21.21
108 LAPUCCI MARCO M M4 22 GS CLUB CICLO APPENNINICO 1907 02:33:10.01 33,69 02:32:43.43
109 CECCONI MASSIMILIANO M M5 14 CANNONDALE SCAPINO 02:33:10.76 33,69 02:29:12.36
110 CESARINI ROBERTO M M4 23 ASD LARIS BIKE 02:33:20.18 33,65 02:30:16.16
111 MAINI MARCO M M4 24 TEAM FERRARA BIKE 02:33:21.80 33,65 02:29:36.60
112 CAMBI RENZO M M5 15 ASD CICLISTICA SENESE 02:33:53.93 33,53 02:33:36.43
113 MORUCCI SIMONE M M3 25 ASD CICLISTICA SENESE 02:33:58.43 33,51 02:31:32.23
114 DAINELLI LUCA M M6 7 ASD MTB GINESTRA 2013 02:34:02.97 33,50 02:32:08.07
115 OTRANTO FRANCESCO M ELMT 8 CYKELN TEAM ASD 02:34:06.22 33,48 02:30:00.00
116 MUNGAI MASSIMO M M4 25 CDP SPAZZAVENTO ASD CICLISMO 02:34:29.93 33,40 02:33:26.63
117 MANUELE BRUNO M M2 14 GC VAL DI MERSE 02:34:35.19 33,38 02:31:30.30
118 SBARAGLI GIACOMO M ELMT 9 UC MARCIALLA 02:34:38.87 33,37 02:34:15.47
119 SCASSAGREPPI FABIO M M5 16 ASD LARIS BIKE 02:34:42.92 33,35 02:31:38.82
120 ORSINI MARCO M M4 26 ASD TEAM BIKE PONTE 02:34:43.02 33,35 02:30:38.38
121 BIZZAGLIA ANGELO M M2 15 BIKELAND TEAM BIKE 2003 02:34:44.34 33,35 02:31:22.14
122 NARDI GIANCARLO M M6 8